<?xml version="1.0" encoding="UTF-8" standalone="no" ?>
<gpx xmlns="http://www.topografix.com/GPX/1/1" xmlns:xsi="http://www.w3.org/2001/XMLSchema-instance" xsi:schemaLocation="http://www.topografix.com/GPX/1/1 http://www.topografix.com/GPX/1/1/gpx.xsd" version="1.1" creator="VisuGPX - https://www.visugpx.com">
  <metadata>
    <name>Randonnée à Echay le 11/10/2015</name>
    <desc><![CDATA[Randonnée à Echay le 11/10/2015]]></desc>
  </metadata>
  <trk>
    <name><![CDATA[Actuel: 11 OCT 2015 11:01]]></name>
    <trkseg>
      <trkpt lat="47.04552" lon="5.94746">
        <ele>-153.69</ele>
        <time>2015-10-11T09:01:54Z</time>
      </trkpt>
      <trkpt lat="47.04551" lon="5.94749">
        <ele>-153.8</ele>
        <time>2015-10-11T09:02:25Z</time>
      </trkpt>
      <trkpt lat="47.04558" lon="5.94749">
        <ele>-153.1</ele>
        <time>2015-10-11T09:02:47Z</time>
      </trkpt>
      <trkpt lat="47.04556" lon="5.94751">
        <ele>-153.89</ele>
        <time>2015-10-11T09:03:09Z</time>
      </trkpt>
      <trkpt lat="47.04558" lon="5.94746">
        <ele>-153.67</ele>
        <time>2015-10-11T09:03:32Z</time>
      </trkpt>
      <trkpt lat="47.04554" lon="5.94744">
        <ele>-153.41</ele>
        <time>2015-10-11T09:03:54Z</time>
      </trkpt>
      <trkpt lat="47.04552" lon="5.94745">
        <ele>-153.47</ele>
        <time>2015-10-11T09:04:19Z</time>
      </trkpt>
      <trkpt lat="47.04553" lon="5.94746">
        <ele>-153.93</ele>
        <time>2015-10-11T09:04:47Z</time>
      </trkpt>
      <trkpt lat="47.04551" lon="5.94745">
        <ele>-154</ele>
        <time>2015-10-11T09:05:10Z</time>
      </trkpt>
      <trkpt lat="47.04552" lon="5.94743">
        <ele>-153.51</ele>
        <time>2015-10-11T09:05:38Z</time>
      </trkpt>
      <trkpt lat="47.04549" lon="5.94747">
        <ele>-153.56</ele>
        <time>2015-10-11T09:06:05Z</time>
      </trkpt>
      <trkpt lat="47.0454" lon="5.94752">
        <ele>-153.37</ele>
        <time>2015-10-11T09:06:28Z</time>
      </trkpt>
      <trkpt lat="47.04527" lon="5.94761">
        <ele>-153.98</ele>
        <time>2015-10-11T09:06:49Z</time>
      </trkpt>
      <trkpt lat="47.04512" lon="5.94757">
        <ele>-154.63</ele>
        <time>2015-10-11T09:07:11Z</time>
      </trkpt>
      <trkpt lat="47.04495" lon="5.94745">
        <ele>-155.65</ele>
        <time>2015-10-11T09:07:35Z</time>
      </trkpt>
      <trkpt lat="47.04479" lon="5.94725">
        <ele>-156.87</ele>
        <time>2015-10-11T09:08:00Z</time>
      </trkpt>
      <trkpt lat="47.04463" lon="5.9471">
        <ele>-158.48</ele>
        <time>2015-10-11T09:08:21Z</time>
      </trkpt>
      <trkpt lat="47.04459" lon="5.94707">
        <ele>-158.73</ele>
        <time>2015-10-11T09:08:24Z</time>
      </trkpt>
      <trkpt lat="47.04442" lon="5.94692">
        <ele>-159.73</ele>
        <time>2015-10-11T09:08:40Z</time>
      </trkpt>
      <trkpt lat="47.0444" lon="5.94688">
        <ele>-159.9</ele>
        <time>2015-10-11T09:08:43Z</time>
      </trkpt>
      <trkpt lat="47.04436" lon="5.94646">
        <ele>-161.64</ele>
        <time>2015-10-11T09:09:09Z</time>
      </trkpt>
      <trkpt lat="47.04435" lon="5.94605">
        <ele>-162.74</ele>
        <time>2015-10-11T09:09:35Z</time>
      </trkpt>
      <trkpt lat="47.04426" lon="5.94569">
        <ele>-163.48</ele>
        <time>2015-10-11T09:10:03Z</time>
      </trkpt>
      <trkpt lat="47.04416" lon="5.94549">
        <ele>-163.73</ele>
        <time>2015-10-11T09:10:28Z</time>
      </trkpt>
      <trkpt lat="47.04401" lon="5.94521">
        <ele>-164.89</ele>
        <time>2015-10-11T09:10:53Z</time>
      </trkpt>
      <trkpt lat="47.04401" lon="5.9452">
        <ele>-164.95</ele>
        <time>2015-10-11T09:10:54Z</time>
      </trkpt>
      <trkpt lat="47.04385" lon="5.94483">
        <ele>-165.75</ele>
        <time>2015-10-11T09:11:23Z</time>
      </trkpt>
      <trkpt lat="47.04381" lon="5.94448">
        <ele>-165.01</ele>
        <time>2015-10-11T09:11:50Z</time>
      </trkpt>
      <trkpt lat="47.04378" lon="5.94417">
        <ele>-163.94</ele>
        <time>2015-10-11T09:12:12Z</time>
      </trkpt>
      <trkpt lat="47.04376" lon="5.94386">
        <ele>-162.87</ele>
        <time>2015-10-11T09:12:35Z</time>
      </trkpt>
      <trkpt lat="47.04374" lon="5.94376">
        <ele>-162.52</ele>
        <time>2015-10-11T09:12:40Z</time>
      </trkpt>
      <trkpt lat="47.04374" lon="5.94359">
        <ele>-161.86</ele>
        <time>2015-10-11T09:13:00Z</time>
      </trkpt>
      <trkpt lat="47.04374" lon="5.94359">
        <ele>-161.83</ele>
        <time>2015-10-11T09:13:32Z</time>
      </trkpt>
      <trkpt lat="47.04375" lon="5.94359">
        <ele>-161.86</ele>
        <time>2015-10-11T09:14:03Z</time>
      </trkpt>
      <trkpt lat="47.04374" lon="5.94358">
        <ele>-161.82</ele>
        <time>2015-10-11T09:14:33Z</time>
      </trkpt>
      <trkpt lat="47.0437" lon="5.94357">
        <ele>-162.14</ele>
        <time>2015-10-11T09:14:37Z</time>
      </trkpt>
      <trkpt lat="47.04365" lon="5.94353">
        <ele>-162.25</ele>
        <time>2015-10-11T09:14:40Z</time>
      </trkpt>
      <trkpt lat="47.04361" lon="5.94348">
        <ele>-162.34</ele>
        <time>2015-10-11T09:14:44Z</time>
      </trkpt>
      <trkpt lat="47.04347" lon="5.9432">
        <ele>-161.29</ele>
        <time>2015-10-11T09:15:01Z</time>
      </trkpt>
      <trkpt lat="47.04344" lon="5.94305">
        <ele>-160.36</ele>
        <time>2015-10-11T09:15:09Z</time>
      </trkpt>
      <trkpt lat="47.0433" lon="5.94282">
        <ele>-157.88</ele>
        <time>2015-10-11T09:15:27Z</time>
      </trkpt>
      <trkpt lat="47.04328" lon="5.94281">
        <ele>-157.72</ele>
        <time>2015-10-11T09:15:28Z</time>
      </trkpt>
      <trkpt lat="47.04308" lon="5.94272">
        <ele>-154.97</ele>
        <time>2015-10-11T09:15:45Z</time>
      </trkpt>
      <trkpt lat="47.04302" lon="5.94269">
        <ele>-154.13</ele>
        <time>2015-10-11T09:15:50Z</time>
      </trkpt>
      <trkpt lat="47.043" lon="5.94269">
        <ele>-153.84</ele>
        <time>2015-10-11T09:15:52Z</time>
      </trkpt>
      <trkpt lat="47.04281" lon="5.94266">
        <ele>-151.98</ele>
        <time>2015-10-11T09:16:09Z</time>
      </trkpt>
      <trkpt lat="47.04271" lon="5.94262">
        <ele>-151.53</ele>
        <time>2015-10-11T09:16:29Z</time>
      </trkpt>
      <trkpt lat="47.04254" lon="5.94254">
        <ele>-149.69</ele>
        <time>2015-10-11T09:16:43Z</time>
      </trkpt>
      <trkpt lat="47.0424" lon="5.94246">
        <ele>-147.83</ele>
        <time>2015-10-11T09:16:57Z</time>
      </trkpt>
      <trkpt lat="47.04226" lon="5.9424">
        <ele>-145.93</ele>
        <time>2015-10-11T09:17:09Z</time>
      </trkpt>
      <trkpt lat="47.04218" lon="5.94233">
        <ele>-145.04</ele>
        <time>2015-10-11T09:17:16Z</time>
      </trkpt>
      <trkpt lat="47.04208" lon="5.94218">
        <ele>-142.69</ele>
        <time>2015-10-11T09:17:31Z</time>
      </trkpt>
      <trkpt lat="47.04208" lon="5.94207">
        <ele>-141.23</ele>
        <time>2015-10-11T09:17:39Z</time>
      </trkpt>
      <trkpt lat="47.04219" lon="5.94176">
        <ele>-137.99</ele>
        <time>2015-10-11T09:18:01Z</time>
      </trkpt>
      <trkpt lat="47.04221" lon="5.94173">
        <ele>-137.56</ele>
        <time>2015-10-11T09:18:04Z</time>
      </trkpt>
      <trkpt lat="47.04218" lon="5.94158">
        <ele>-136.11</ele>
        <time>2015-10-11T09:18:14Z</time>
      </trkpt>
      <trkpt lat="47.04202" lon="5.9414">
        <ele>-132.8</ele>
        <time>2015-10-11T09:18:33Z</time>
      </trkpt>
      <trkpt lat="47.0419" lon="5.94131">
        <ele>-129.79</ele>
        <time>2015-10-11T09:18:50Z</time>
      </trkpt>
      <trkpt lat="47.04173" lon="5.94129">
        <ele>-126.72</ele>
        <time>2015-10-11T09:19:11Z</time>
      </trkpt>
      <trkpt lat="47.04145" lon="5.94125">
        <ele>-123.95</ele>
        <time>2015-10-11T09:19:40Z</time>
      </trkpt>
      <trkpt lat="47.04123" lon="5.94117">
        <ele>-121.72</ele>
        <time>2015-10-11T09:20:07Z</time>
      </trkpt>
      <trkpt lat="47.04102" lon="5.9411">
        <ele>-118.61</ele>
        <time>2015-10-11T09:20:35Z</time>
      </trkpt>
      <trkpt lat="47.04084" lon="5.94109">
        <ele>-115.56</ele>
        <time>2015-10-11T09:20:58Z</time>
      </trkpt>
      <trkpt lat="47.04064" lon="5.94116">
        <ele>-112.48</ele>
        <time>2015-10-11T09:21:23Z</time>
      </trkpt>
      <trkpt lat="47.04039" lon="5.94125">
        <ele>-109.7</ele>
        <time>2015-10-11T09:21:52Z</time>
      </trkpt>
      <trkpt lat="47.04019" lon="5.94122">
        <ele>-107.39</ele>
        <time>2015-10-11T09:22:16Z</time>
      </trkpt>
      <trkpt lat="47.03999" lon="5.94122">
        <ele>-105.88</ele>
        <time>2015-10-11T09:22:39Z</time>
      </trkpt>
      <trkpt lat="47.03979" lon="5.94103">
        <ele>-103.9</ele>
        <time>2015-10-11T09:23:06Z</time>
      </trkpt>
      <trkpt lat="47.03966" lon="5.94079">
        <ele>-101.92</ele>
        <time>2015-10-11T09:23:30Z</time>
      </trkpt>
      <trkpt lat="47.03951" lon="5.9405">
        <ele>-100.8</ele>
        <time>2015-10-11T09:23:53Z</time>
      </trkpt>
      <trkpt lat="47.03933" lon="5.9402">
        <ele>-99.12</ele>
        <time>2015-10-11T09:24:23Z</time>
      </trkpt>
      <trkpt lat="47.03917" lon="5.93985">
        <ele>-98.01</ele>
        <time>2015-10-11T09:24:52Z</time>
      </trkpt>
      <trkpt lat="47.03907" lon="5.93955">
        <ele>-97</ele>
        <time>2015-10-11T09:25:21Z</time>
      </trkpt>
      <trkpt lat="47.03904" lon="5.9394">
        <ele>-96.97</ele>
        <time>2015-10-11T09:25:32Z</time>
      </trkpt>
      <trkpt lat="47.03895" lon="5.93898">
        <ele>-96.75</ele>
        <time>2015-10-11T09:26:03Z</time>
      </trkpt>
      <trkpt lat="47.03881" lon="5.93862">
        <ele>-95.38</ele>
        <time>2015-10-11T09:26:32Z</time>
      </trkpt>
      <trkpt lat="47.03855" lon="5.9383">
        <ele>-94.54</ele>
        <time>2015-10-11T09:27:03Z</time>
      </trkpt>
      <trkpt lat="47.03835" lon="5.93805">
        <ele>-93.56</ele>
        <time>2015-10-11T09:27:29Z</time>
      </trkpt>
      <trkpt lat="47.03808" lon="5.93791">
        <ele>-92.75</ele>
        <time>2015-10-11T09:27:58Z</time>
      </trkpt>
      <trkpt lat="47.03783" lon="5.93769">
        <ele>-90.82</ele>
        <time>2015-10-11T09:28:28Z</time>
      </trkpt>
      <trkpt lat="47.0376" lon="5.93748">
        <ele>-89.83</ele>
        <time>2015-10-11T09:28:53Z</time>
      </trkpt>
      <trkpt lat="47.03746" lon="5.93729">
        <ele>-87.81</ele>
        <time>2015-10-11T09:29:17Z</time>
      </trkpt>
      <trkpt lat="47.03747" lon="5.93702">
        <ele>-84.79</ele>
        <time>2015-10-11T09:29:41Z</time>
      </trkpt>
      <trkpt lat="47.03764" lon="5.93696">
        <ele>-82.55</ele>
        <time>2015-10-11T09:30:08Z</time>
      </trkpt>
      <trkpt lat="47.0377" lon="5.93696">
        <ele>-81.76</ele>
        <time>2015-10-11T09:30:34Z</time>
      </trkpt>
      <trkpt lat="47.03769" lon="5.93696">
        <ele>-81.97</ele>
        <time>2015-10-11T09:31:00Z</time>
      </trkpt>
      <trkpt lat="47.03769" lon="5.93696">
        <ele>-81.96</ele>
        <time>2015-10-11T09:31:32Z</time>
      </trkpt>
      <trkpt lat="47.03769" lon="5.93696">
        <ele>-81.76</ele>
        <time>2015-10-11T09:32:04Z</time>
      </trkpt>
      <trkpt lat="47.0377" lon="5.937">
        <ele>-81.68</ele>
        <time>2015-10-11T09:32:32Z</time>
      </trkpt>
      <trkpt lat="47.03769" lon="5.93699">
        <ele>-81.73</ele>
        <time>2015-10-11T09:32:58Z</time>
      </trkpt>
      <trkpt lat="47.03771" lon="5.93695">
        <ele>-81.94</ele>
        <time>2015-10-11T09:33:22Z</time>
      </trkpt>
      <trkpt lat="47.0377" lon="5.93695">
        <ele>-82.07</ele>
        <time>2015-10-11T09:33:51Z</time>
      </trkpt>
      <trkpt lat="47.03771" lon="5.93696">
        <ele>-81.94</ele>
        <time>2015-10-11T09:34:16Z</time>
      </trkpt>
      <trkpt lat="47.0377" lon="5.93697">
        <ele>-81.9</ele>
        <time>2015-10-11T09:34:38Z</time>
      </trkpt>
      <trkpt lat="47.03771" lon="5.93695">
        <ele>-81.9</ele>
        <time>2015-10-11T09:35:01Z</time>
      </trkpt>
      <trkpt lat="47.03771" lon="5.93695">
        <ele>-81.97</ele>
        <time>2015-10-11T09:35:30Z</time>
      </trkpt>
      <trkpt lat="47.03772" lon="5.93697">
        <ele>-81.59</ele>
        <time>2015-10-11T09:35:56Z</time>
      </trkpt>
      <trkpt lat="47.03785" lon="5.93699">
        <ele>-81.2</ele>
        <time>2015-10-11T09:36:21Z</time>
      </trkpt>
      <trkpt lat="47.03804" lon="5.93709">
        <ele>-79.3</ele>
        <time>2015-10-11T09:36:45Z</time>
      </trkpt>
      <trkpt lat="47.0383" lon="5.93711">
        <ele>-77.92</ele>
        <time>2015-10-11T09:37:11Z</time>
      </trkpt>
      <trkpt lat="47.03854" lon="5.93701">
        <ele>-76.34</ele>
        <time>2015-10-11T09:37:38Z</time>
      </trkpt>
      <trkpt lat="47.03863" lon="5.93693">
        <ele>-75.84</ele>
        <time>2015-10-11T09:37:46Z</time>
      </trkpt>
      <trkpt lat="47.0389" lon="5.9366">
        <ele>-74.16</ele>
        <time>2015-10-11T09:38:15Z</time>
      </trkpt>
      <trkpt lat="47.03912" lon="5.93647">
        <ele>-72.72</ele>
        <time>2015-10-11T09:38:38Z</time>
      </trkpt>
      <trkpt lat="47.03941" lon="5.93639">
        <ele>-70.93</ele>
        <time>2015-10-11T09:39:07Z</time>
      </trkpt>
      <trkpt lat="47.03968" lon="5.93646">
        <ele>-69.49</ele>
        <time>2015-10-11T09:39:31Z</time>
      </trkpt>
      <trkpt lat="47.04" lon="5.9366">
        <ele>-68.39</ele>
        <time>2015-10-11T09:40:00Z</time>
      </trkpt>
      <trkpt lat="47.04027" lon="5.93672">
        <ele>-67.68</ele>
        <time>2015-10-11T09:40:24Z</time>
      </trkpt>
      <trkpt lat="47.04044" lon="5.93681">
        <ele>-67.87</ele>
        <time>2015-10-11T09:40:40Z</time>
      </trkpt>
      <trkpt lat="47.04061" lon="5.93692">
        <ele>-68.1</ele>
        <time>2015-10-11T09:40:57Z</time>
      </trkpt>
      <trkpt lat="47.04064" lon="5.93693">
        <ele>-68.17</ele>
        <time>2015-10-11T09:41:00Z</time>
      </trkpt>
      <trkpt lat="47.0408" lon="5.93707">
        <ele>-68.66</ele>
        <time>2015-10-11T09:41:18Z</time>
      </trkpt>
      <trkpt lat="47.04104" lon="5.93722">
        <ele>-69.21</ele>
        <time>2015-10-11T09:41:43Z</time>
      </trkpt>
      <trkpt lat="47.04138" lon="5.93739">
        <ele>-70.17</ele>
        <time>2015-10-11T09:42:13Z</time>
      </trkpt>
      <trkpt lat="47.04166" lon="5.93749">
        <ele>-71.44</ele>
        <time>2015-10-11T09:42:39Z</time>
      </trkpt>
      <trkpt lat="47.04194" lon="5.93756">
        <ele>-71.97</ele>
        <time>2015-10-11T09:43:05Z</time>
      </trkpt>
      <trkpt lat="47.04227" lon="5.93756">
        <ele>-72.48</ele>
        <time>2015-10-11T09:43:34Z</time>
      </trkpt>
      <trkpt lat="47.04261" lon="5.93754">
        <ele>-72.79</ele>
        <time>2015-10-11T09:43:59Z</time>
      </trkpt>
      <trkpt lat="47.04295" lon="5.93747">
        <ele>-71.79</ele>
        <time>2015-10-11T09:44:29Z</time>
      </trkpt>
      <trkpt lat="47.04311" lon="5.93738">
        <ele>-71.2</ele>
        <time>2015-10-11T09:44:45Z</time>
      </trkpt>
      <trkpt lat="47.04332" lon="5.93736">
        <ele>-70.4</ele>
        <time>2015-10-11T09:45:03Z</time>
      </trkpt>
      <trkpt lat="47.04365" lon="5.93737">
        <ele>-69.32</ele>
        <time>2015-10-11T09:45:32Z</time>
      </trkpt>
      <trkpt lat="47.04397" lon="5.93737">
        <ele>-68.36</ele>
        <time>2015-10-11T09:45:59Z</time>
      </trkpt>
      <trkpt lat="47.04439" lon="5.93739">
        <ele>-67.74</ele>
        <time>2015-10-11T09:46:31Z</time>
      </trkpt>
      <trkpt lat="47.04478" lon="5.93745">
        <ele>-67.05</ele>
        <time>2015-10-11T09:47:02Z</time>
      </trkpt>
      <trkpt lat="47.04484" lon="5.93752">
        <ele>-66.85</ele>
        <time>2015-10-11T09:47:22Z</time>
      </trkpt>
      <trkpt lat="47.04486" lon="5.93752">
        <ele>-66.88</ele>
        <time>2015-10-11T09:47:49Z</time>
      </trkpt>
      <trkpt lat="47.04487" lon="5.93752">
        <ele>-66.88</ele>
        <time>2015-10-11T09:48:20Z</time>
      </trkpt>
      <trkpt lat="47.04482" lon="5.93761">
        <ele>-66.32</ele>
        <time>2015-10-11T09:48:43Z</time>
      </trkpt>
      <trkpt lat="47.04474" lon="5.9378">
        <ele>-66.35</ele>
        <time>2015-10-11T09:48:58Z</time>
      </trkpt>
      <trkpt lat="47.04473" lon="5.93815">
        <ele>-65.25</ele>
        <time>2015-10-11T09:49:24Z</time>
      </trkpt>
      <trkpt lat="47.0448" lon="5.9385">
        <ele>-63.6</ele>
        <time>2015-10-11T09:49:50Z</time>
      </trkpt>
      <trkpt lat="47.04478" lon="5.93888">
        <ele>-61.74</ele>
        <time>2015-10-11T09:50:14Z</time>
      </trkpt>
      <trkpt lat="47.04477" lon="5.93912">
        <ele>-60.96</ele>
        <time>2015-10-11T09:50:38Z</time>
      </trkpt>
      <trkpt lat="47.04474" lon="5.93914">
        <ele>-61.86</ele>
        <time>2015-10-11T09:50:56Z</time>
      </trkpt>
      <trkpt lat="47.04476" lon="5.93912">
        <ele>-61.34</ele>
        <time>2015-10-11T09:51:21Z</time>
      </trkpt>
      <trkpt lat="47.04473" lon="5.93912">
        <ele>-61.11</ele>
        <time>2015-10-11T09:51:45Z</time>
      </trkpt>
      <trkpt lat="47.04472" lon="5.93913">
        <ele>-60.89</ele>
        <time>2015-10-11T09:52:14Z</time>
      </trkpt>
      <trkpt lat="47.04472" lon="5.93914">
        <ele>-60.91</ele>
        <time>2015-10-11T09:52:37Z</time>
      </trkpt>
      <trkpt lat="47.0447" lon="5.93914">
        <ele>-61.07</ele>
        <time>2015-10-11T09:53:02Z</time>
      </trkpt>
      <trkpt lat="47.04471" lon="5.93915">
        <ele>-61.2</ele>
        <time>2015-10-11T09:53:31Z</time>
      </trkpt>
      <trkpt lat="47.04475" lon="5.93914">
        <ele>-60.72</ele>
        <time>2015-10-11T09:53:54Z</time>
      </trkpt>
      <trkpt lat="47.04475" lon="5.93915">
        <ele>-60.76</ele>
        <time>2015-10-11T09:54:22Z</time>
      </trkpt>
      <trkpt lat="47.04475" lon="5.93914">
        <ele>-60.79</ele>
        <time>2015-10-11T09:54:49Z</time>
      </trkpt>
      <trkpt lat="47.04473" lon="5.93918">
        <ele>-60.81</ele>
        <time>2015-10-11T09:55:19Z</time>
      </trkpt>
      <trkpt lat="47.04472" lon="5.9392">
        <ele>-61.13</ele>
        <time>2015-10-11T09:55:44Z</time>
      </trkpt>
      <trkpt lat="47.04469" lon="5.93921">
        <ele>-60.9</ele>
        <time>2015-10-11T09:56:05Z</time>
      </trkpt>
      <trkpt lat="47.0447" lon="5.9392">
        <ele>-60.71</ele>
        <time>2015-10-11T09:56:26Z</time>
      </trkpt>
      <trkpt lat="47.04472" lon="5.93917">
        <ele>-60.7</ele>
        <time>2015-10-11T09:56:54Z</time>
      </trkpt>
      <trkpt lat="47.04472" lon="5.93917">
        <ele>-60.87</ele>
        <time>2015-10-11T09:57:15Z</time>
      </trkpt>
      <trkpt lat="47.04473" lon="5.93917">
        <ele>-61.08</ele>
        <time>2015-10-11T09:57:46Z</time>
      </trkpt>
      <trkpt lat="47.04474" lon="5.93918">
        <ele>-61.12</ele>
        <time>2015-10-11T09:58:17Z</time>
      </trkpt>
      <trkpt lat="47.04474" lon="5.93919">
        <ele>-61.05</ele>
        <time>2015-10-11T09:58:47Z</time>
      </trkpt>
      <trkpt lat="47.04474" lon="5.9392">
        <ele>-60.95</ele>
        <time>2015-10-11T09:59:11Z</time>
      </trkpt>
      <trkpt lat="47.04474" lon="5.93917">
        <ele>-60.86</ele>
        <time>2015-10-11T09:59:26Z</time>
      </trkpt>
      <trkpt lat="47.04472" lon="5.93913">
        <ele>-60.71</ele>
        <time>2015-10-11T09:59:52Z</time>
      </trkpt>
      <trkpt lat="47.04474" lon="5.93914">
        <ele>-60.78</ele>
        <time>2015-10-11T10:00:18Z</time>
      </trkpt>
      <trkpt lat="47.04477" lon="5.93906">
        <ele>-60.94</ele>
        <time>2015-10-11T10:00:36Z</time>
      </trkpt>
      <trkpt lat="47.04483" lon="5.93905">
        <ele>-60.6</ele>
        <time>2015-10-11T10:01:00Z</time>
      </trkpt>
      <trkpt lat="47.04505" lon="5.9391">
        <ele>-60.53</ele>
        <time>2015-10-11T10:01:24Z</time>
      </trkpt>
      <trkpt lat="47.04525" lon="5.93915">
        <ele>-61.06</ele>
        <time>2015-10-11T10:01:47Z</time>
      </trkpt>
      <trkpt lat="47.04546" lon="5.93919">
        <ele>-62.5</ele>
        <time>2015-10-11T10:02:15Z</time>
      </trkpt>
      <trkpt lat="47.04571" lon="5.93931">
        <ele>-65.61</ele>
        <time>2015-10-11T10:02:41Z</time>
      </trkpt>
      <trkpt lat="47.04602" lon="5.93926">
        <ele>-68.12</ele>
        <time>2015-10-11T10:03:05Z</time>
      </trkpt>
      <trkpt lat="47.04626" lon="5.9391">
        <ele>-69.52</ele>
        <time>2015-10-11T10:03:29Z</time>
      </trkpt>
      <trkpt lat="47.0463" lon="5.939">
        <ele>-69.57</ele>
        <time>2015-10-11T10:03:49Z</time>
      </trkpt>
      <trkpt lat="47.04634" lon="5.93897">
        <ele>-70.08</ele>
        <time>2015-10-11T10:04:21Z</time>
      </trkpt>
      <trkpt lat="47.04656" lon="5.93867">
        <ele>-69.5</ele>
        <time>2015-10-11T10:04:48Z</time>
      </trkpt>
      <trkpt lat="47.0466" lon="5.93852">
        <ele>-68.47</ele>
        <time>2015-10-11T10:05:10Z</time>
      </trkpt>
      <trkpt lat="47.04674" lon="5.93863">
        <ele>-68.19</ele>
        <time>2015-10-11T10:05:37Z</time>
      </trkpt>
      <trkpt lat="47.04698" lon="5.93878">
        <ele>-67.57</ele>
        <time>2015-10-11T10:06:03Z</time>
      </trkpt>
      <trkpt lat="47.04715" lon="5.93895">
        <ele>-67.09</ele>
        <time>2015-10-11T10:06:27Z</time>
      </trkpt>
      <trkpt lat="47.04744" lon="5.93913">
        <ele>-67</ele>
        <time>2015-10-11T10:06:54Z</time>
      </trkpt>
      <trkpt lat="47.04769" lon="5.93927">
        <ele>-66.5</ele>
        <time>2015-10-11T10:07:19Z</time>
      </trkpt>
      <trkpt lat="47.04796" lon="5.93934">
        <ele>-66.08</ele>
        <time>2015-10-11T10:07:47Z</time>
      </trkpt>
      <trkpt lat="47.04829" lon="5.93937">
        <ele>-65.58</ele>
        <time>2015-10-11T10:08:17Z</time>
      </trkpt>
      <trkpt lat="47.04832" lon="5.93939">
        <ele>-65.52</ele>
        <time>2015-10-11T10:08:23Z</time>
      </trkpt>
      <trkpt lat="47.04843" lon="5.9395">
        <ele>-65.66</ele>
        <time>2015-10-11T10:08:50Z</time>
      </trkpt>
      <trkpt lat="47.04849" lon="5.93976">
        <ele>-66.81</ele>
        <time>2015-10-11T10:09:10Z</time>
      </trkpt>
      <trkpt lat="47.0486" lon="5.93974">
        <ele>-66.82</ele>
        <time>2015-10-11T10:09:24Z</time>
      </trkpt>
      <trkpt lat="47.04886" lon="5.93963">
        <ele>-69.53</ele>
        <time>2015-10-11T10:09:52Z</time>
      </trkpt>
      <trkpt lat="47.04907" lon="5.93943">
        <ele>-72.23</ele>
        <time>2015-10-11T10:10:19Z</time>
      </trkpt>
      <trkpt lat="47.0491" lon="5.93938">
        <ele>-71.8</ele>
        <time>2015-10-11T10:10:45Z</time>
      </trkpt>
      <trkpt lat="47.04913" lon="5.93935">
        <ele>-71.92</ele>
        <time>2015-10-11T10:11:13Z</time>
      </trkpt>
      <trkpt lat="47.04929" lon="5.9393">
        <ele>-71.21</ele>
        <time>2015-10-11T10:11:35Z</time>
      </trkpt>
      <trkpt lat="47.04953" lon="5.93931">
        <ele>-69.65</ele>
        <time>2015-10-11T10:11:59Z</time>
      </trkpt>
      <trkpt lat="47.04989" lon="5.93921">
        <ele>-66.92</ele>
        <time>2015-10-11T10:12:28Z</time>
      </trkpt>
      <trkpt lat="47.05012" lon="5.939">
        <ele>-65.37</ele>
        <time>2015-10-11T10:12:52Z</time>
      </trkpt>
      <trkpt lat="47.05018" lon="5.93895">
        <ele>-65.12</ele>
        <time>2015-10-11T10:12:58Z</time>
      </trkpt>
      <trkpt lat="47.05029" lon="5.93878">
        <ele>-65.08</ele>
        <time>2015-10-11T10:13:13Z</time>
      </trkpt>
      <trkpt lat="47.05037" lon="5.93857">
        <ele>-65.06</ele>
        <time>2015-10-11T10:13:28Z</time>
      </trkpt>
      <trkpt lat="47.05042" lon="5.93849">
        <ele>-65.45</ele>
        <time>2015-10-11T10:13:36Z</time>
      </trkpt>
      <trkpt lat="47.05048" lon="5.93849">
        <ele>-65.46</ele>
        <time>2015-10-11T10:13:42Z</time>
      </trkpt>
      <trkpt lat="47.05056" lon="5.93866">
        <ele>-64.67</ele>
        <time>2015-10-11T10:13:59Z</time>
      </trkpt>
      <trkpt lat="47.05057" lon="5.93869">
        <ele>-64.66</ele>
        <time>2015-10-11T10:14:01Z</time>
      </trkpt>
      <trkpt lat="47.05058" lon="5.93872">
        <ele>-64.74</ele>
        <time>2015-10-11T10:14:03Z</time>
      </trkpt>
      <trkpt lat="47.05063" lon="5.939">
        <ele>-63.28</ele>
        <time>2015-10-11T10:14:22Z</time>
      </trkpt>
      <trkpt lat="47.05064" lon="5.93922">
        <ele>-62.39</ele>
        <time>2015-10-11T10:14:37Z</time>
      </trkpt>
      <trkpt lat="47.05064" lon="5.93949">
        <ele>-61.82</ele>
        <time>2015-10-11T10:14:54Z</time>
      </trkpt>
      <trkpt lat="47.05067" lon="5.93982">
        <ele>-61.26</ele>
        <time>2015-10-11T10:15:14Z</time>
      </trkpt>
      <trkpt lat="47.0507" lon="5.94009">
        <ele>-60.91</ele>
        <time>2015-10-11T10:15:32Z</time>
      </trkpt>
      <trkpt lat="47.05075" lon="5.94038">
        <ele>-60.69</ele>
        <time>2015-10-11T10:15:53Z</time>
      </trkpt>
      <trkpt lat="47.05076" lon="5.9408">
        <ele>-59.61</ele>
        <time>2015-10-11T10:16:25Z</time>
      </trkpt>
      <trkpt lat="47.05079" lon="5.94097">
        <ele>-58.49</ele>
        <time>2015-10-11T10:16:46Z</time>
      </trkpt>
      <trkpt lat="47.05085" lon="5.94125">
        <ele>-57.92</ele>
        <time>2015-10-11T10:17:04Z</time>
      </trkpt>
      <trkpt lat="47.05093" lon="5.9415">
        <ele>-56.96</ele>
        <time>2015-10-11T10:17:23Z</time>
      </trkpt>
      <trkpt lat="47.05099" lon="5.94151">
        <ele>-56.18</ele>
        <time>2015-10-11T10:17:42Z</time>
      </trkpt>
      <trkpt lat="47.05099" lon="5.94153">
        <ele>-55.67</ele>
        <time>2015-10-11T10:18:06Z</time>
      </trkpt>
      <trkpt lat="47.05098" lon="5.94152">
        <ele>-55.95</ele>
        <time>2015-10-11T10:18:23Z</time>
      </trkpt>
      <trkpt lat="47.05106" lon="5.9414">
        <ele>-55.18</ele>
        <time>2015-10-11T10:18:45Z</time>
      </trkpt>
      <trkpt lat="47.05123" lon="5.94122">
        <ele>-55.02</ele>
        <time>2015-10-11T10:19:11Z</time>
      </trkpt>
      <trkpt lat="47.05144" lon="5.94095">
        <ele>-56.8</ele>
        <time>2015-10-11T10:19:39Z</time>
      </trkpt>
      <trkpt lat="47.0515" lon="5.94091">
        <ele>-56.69</ele>
        <time>2015-10-11T10:19:42Z</time>
      </trkpt>
      <trkpt lat="47.05192" lon="5.94068">
        <ele>-58.87</ele>
        <time>2015-10-11T10:20:09Z</time>
      </trkpt>
      <trkpt lat="47.0521" lon="5.94054">
        <ele>-59</ele>
        <time>2015-10-11T10:20:24Z</time>
      </trkpt>
      <trkpt lat="47.05213" lon="5.94048">
        <ele>-58.76</ele>
        <time>2015-10-11T10:20:28Z</time>
      </trkpt>
      <trkpt lat="47.05214" lon="5.94043">
        <ele>-58.57</ele>
        <time>2015-10-11T10:20:31Z</time>
      </trkpt>
      <trkpt lat="47.05218" lon="5.94039">
        <ele>-58.84</ele>
        <time>2015-10-11T10:20:35Z</time>
      </trkpt>
      <trkpt lat="47.05228" lon="5.94021">
        <ele>-60.35</ele>
        <time>2015-10-11T10:20:48Z</time>
      </trkpt>
      <trkpt lat="47.05244" lon="5.94004">
        <ele>-62.1</ele>
        <time>2015-10-11T10:21:05Z</time>
      </trkpt>
      <trkpt lat="47.05263" lon="5.93988">
        <ele>-64.52</ele>
        <time>2015-10-11T10:21:23Z</time>
      </trkpt>
      <trkpt lat="47.0527" lon="5.93982">
        <ele>-65.22</ele>
        <time>2015-10-11T10:21:29Z</time>
      </trkpt>
      <trkpt lat="47.05274" lon="5.93974">
        <ele>-65.91</ele>
        <time>2015-10-11T10:21:35Z</time>
      </trkpt>
      <trkpt lat="47.05295" lon="5.9396">
        <ele>-67.24</ele>
        <time>2015-10-11T10:21:53Z</time>
      </trkpt>
      <trkpt lat="47.05307" lon="5.93943">
        <ele>-68.1</ele>
        <time>2015-10-11T10:22:07Z</time>
      </trkpt>
      <trkpt lat="47.05309" lon="5.9394">
        <ele>-68.63</ele>
        <time>2015-10-11T10:22:18Z</time>
      </trkpt>
      <trkpt lat="47.05307" lon="5.93938">
        <ele>-68.5</ele>
        <time>2015-10-11T10:22:23Z</time>
      </trkpt>
      <trkpt lat="47.05321" lon="5.93929">
        <ele>-69.22</ele>
        <time>2015-10-11T10:22:36Z</time>
      </trkpt>
      <trkpt lat="47.05333" lon="5.93914">
        <ele>-69.76</ele>
        <time>2015-10-11T10:22:51Z</time>
      </trkpt>
      <trkpt lat="47.0535" lon="5.93902">
        <ele>-69.53</ele>
        <time>2015-10-11T10:23:07Z</time>
      </trkpt>
      <trkpt lat="47.05353" lon="5.93899">
        <ele>-69.35</ele>
        <time>2015-10-11T10:23:10Z</time>
      </trkpt>
      <trkpt lat="47.05361" lon="5.93893">
        <ele>-69.17</ele>
        <time>2015-10-11T10:23:15Z</time>
      </trkpt>
      <trkpt lat="47.05373" lon="5.93884">
        <ele>-69.46</ele>
        <time>2015-10-11T10:23:24Z</time>
      </trkpt>
      <trkpt lat="47.05397" lon="5.9387">
        <ele>-69.9</ele>
        <time>2015-10-11T10:23:42Z</time>
      </trkpt>
      <trkpt lat="47.05402" lon="5.93866">
        <ele>-69.71</ele>
        <time>2015-10-11T10:23:47Z</time>
      </trkpt>
      <trkpt lat="47.05406" lon="5.93855">
        <ele>-69.76</ele>
        <time>2015-10-11T10:23:53Z</time>
      </trkpt>
      <trkpt lat="47.05428" lon="5.93842">
        <ele>-69.82</ele>
        <time>2015-10-11T10:24:13Z</time>
      </trkpt>
      <trkpt lat="47.05432" lon="5.93841">
        <ele>-69.88</ele>
        <time>2015-10-11T10:24:17Z</time>
      </trkpt>
      <trkpt lat="47.05432" lon="5.93842">
        <ele>-69.88</ele>
        <time>2015-10-11T10:24:18Z</time>
      </trkpt>
      <trkpt lat="47.05453" lon="5.93846">
        <ele>-71.49</ele>
        <time>2015-10-11T10:24:40Z</time>
      </trkpt>
      <trkpt lat="47.0548" lon="5.93856">
        <ele>-73.55</ele>
        <time>2015-10-11T10:25:08Z</time>
      </trkpt>
      <trkpt lat="47.05513" lon="5.93866">
        <ele>-71.51</ele>
        <time>2015-10-11T10:25:36Z</time>
      </trkpt>
      <trkpt lat="47.05539" lon="5.93873">
        <ele>-70.57</ele>
        <time>2015-10-11T10:25:55Z</time>
      </trkpt>
      <trkpt lat="47.05543" lon="5.93875">
        <ele>-70.47</ele>
        <time>2015-10-11T10:25:58Z</time>
      </trkpt>
      <trkpt lat="47.05558" lon="5.9388">
        <ele>-70.21</ele>
        <time>2015-10-11T10:26:13Z</time>
      </trkpt>
      <trkpt lat="47.05578" lon="5.93883">
        <ele>-70.61</ele>
        <time>2015-10-11T10:26:29Z</time>
      </trkpt>
      <trkpt lat="47.05595" lon="5.93879">
        <ele>-70.89</ele>
        <time>2015-10-11T10:26:45Z</time>
      </trkpt>
      <trkpt lat="47.05603" lon="5.93885">
        <ele>-70.74</ele>
        <time>2015-10-11T10:27:07Z</time>
      </trkpt>
      <trkpt lat="47.05625" lon="5.93879">
        <ele>-71.22</ele>
        <time>2015-10-11T10:27:33Z</time>
      </trkpt>
      <trkpt lat="47.05652" lon="5.93873">
        <ele>-71.88</ele>
        <time>2015-10-11T10:28:03Z</time>
      </trkpt>
      <trkpt lat="47.05672" lon="5.93856">
        <ele>-72.2</ele>
        <time>2015-10-11T10:28:24Z</time>
      </trkpt>
      <trkpt lat="47.05689" lon="5.93849">
        <ele>-72.3</ele>
        <time>2015-10-11T10:28:53Z</time>
      </trkpt>
      <trkpt lat="47.05707" lon="5.93842">
        <ele>-72.05</ele>
        <time>2015-10-11T10:29:06Z</time>
      </trkpt>
      <trkpt lat="47.05733" lon="5.93821">
        <ele>-72.13</ele>
        <time>2015-10-11T10:29:33Z</time>
      </trkpt>
      <trkpt lat="47.05761" lon="5.93814">
        <ele>-72.84</ele>
        <time>2015-10-11T10:30:01Z</time>
      </trkpt>
      <trkpt lat="47.05789" lon="5.93824">
        <ele>-74.2</ele>
        <time>2015-10-11T10:30:25Z</time>
      </trkpt>
      <trkpt lat="47.05815" lon="5.93836">
        <ele>-75.24</ele>
        <time>2015-10-11T10:30:49Z</time>
      </trkpt>
      <trkpt lat="47.05829" lon="5.93851">
        <ele>-76.59</ele>
        <time>2015-10-11T10:31:04Z</time>
      </trkpt>
      <trkpt lat="47.05842" lon="5.93862">
        <ele>-77.84</ele>
        <time>2015-10-11T10:31:27Z</time>
      </trkpt>
      <trkpt lat="47.05855" lon="5.93878">
        <ele>-79.25</ele>
        <time>2015-10-11T10:31:52Z</time>
      </trkpt>
      <trkpt lat="47.05868" lon="5.93907">
        <ele>-79.77</ele>
        <time>2015-10-11T10:32:16Z</time>
      </trkpt>
      <trkpt lat="47.0589" lon="5.93936">
        <ele>-79.45</ele>
        <time>2015-10-11T10:32:41Z</time>
      </trkpt>
      <trkpt lat="47.05908" lon="5.93964">
        <ele>-76.71</ele>
        <time>2015-10-11T10:33:09Z</time>
      </trkpt>
      <trkpt lat="47.0593" lon="5.93992">
        <ele>-74.65</ele>
        <time>2015-10-11T10:33:38Z</time>
      </trkpt>
      <trkpt lat="47.05949" lon="5.94013">
        <ele>-72.9</ele>
        <time>2015-10-11T10:34:05Z</time>
      </trkpt>
      <trkpt lat="47.0597" lon="5.94044">
        <ele>-70.7</ele>
        <time>2015-10-11T10:34:40Z</time>
      </trkpt>
      <trkpt lat="47.05986" lon="5.94081">
        <ele>-68.98</ele>
        <time>2015-10-11T10:35:06Z</time>
      </trkpt>
      <trkpt lat="47.06003" lon="5.94126">
        <ele>-67.56</ele>
        <time>2015-10-11T10:35:35Z</time>
      </trkpt>
      <trkpt lat="47.0601" lon="5.94143">
        <ele>-67.14</ele>
        <time>2015-10-11T10:35:47Z</time>
      </trkpt>
      <trkpt lat="47.0603" lon="5.94166">
        <ele>-66.42</ele>
        <time>2015-10-11T10:36:11Z</time>
      </trkpt>
      <trkpt lat="47.06032" lon="5.9417">
        <ele>-66.57</ele>
        <time>2015-10-11T10:36:27Z</time>
      </trkpt>
      <trkpt lat="47.06028" lon="5.94172">
        <ele>-66.18</ele>
        <time>2015-10-11T10:36:42Z</time>
      </trkpt>
      <trkpt lat="47.06027" lon="5.94174">
        <ele>-66.39</ele>
        <time>2015-10-11T10:36:56Z</time>
      </trkpt>
      <trkpt lat="47.0603" lon="5.9417">
        <ele>-66.59</ele>
        <time>2015-10-11T10:37:18Z</time>
      </trkpt>
      <trkpt lat="47.06031" lon="5.94172">
        <ele>-66.65</ele>
        <time>2015-10-11T10:37:38Z</time>
      </trkpt>
      <trkpt lat="47.06034" lon="5.94171">
        <ele>-66.01</ele>
        <time>2015-10-11T10:38:06Z</time>
      </trkpt>
      <trkpt lat="47.06033" lon="5.94171">
        <ele>-66.44</ele>
        <time>2015-10-11T10:38:35Z</time>
      </trkpt>
      <trkpt lat="47.06032" lon="5.94172">
        <ele>-65.53</ele>
        <time>2015-10-11T10:39:02Z</time>
      </trkpt>
      <trkpt lat="47.06035" lon="5.94168">
        <ele>-66.12</ele>
        <time>2015-10-11T10:39:26Z</time>
      </trkpt>
      <trkpt lat="47.06034" lon="5.94166">
        <ele>-66.21</ele>
        <time>2015-10-11T10:39:52Z</time>
      </trkpt>
      <trkpt lat="47.06033" lon="5.94169">
        <ele>-66.33</ele>
        <time>2015-10-11T10:40:12Z</time>
      </trkpt>
      <trkpt lat="47.06034" lon="5.9417">
        <ele>-66.71</ele>
        <time>2015-10-11T10:40:37Z</time>
      </trkpt>
      <trkpt lat="47.06032" lon="5.9417">
        <ele>-66.54</ele>
        <time>2015-10-11T10:41:01Z</time>
      </trkpt>
      <trkpt lat="47.06032" lon="5.94169">
        <ele>-66.75</ele>
        <time>2015-10-11T10:41:24Z</time>
      </trkpt>
      <trkpt lat="47.06033" lon="5.94168">
        <ele>-66.62</ele>
        <time>2015-10-11T10:41:55Z</time>
      </trkpt>
      <trkpt lat="47.06032" lon="5.94169">
        <ele>-66.38</ele>
        <time>2015-10-11T10:42:23Z</time>
      </trkpt>
      <trkpt lat="47.06031" lon="5.94174">
        <ele>-66.34</ele>
        <time>2015-10-11T10:42:55Z</time>
      </trkpt>
      <trkpt lat="47.06031" lon="5.94175">
        <ele>-66.38</ele>
        <time>2015-10-11T10:42:58Z</time>
      </trkpt>
      <trkpt lat="47.06032" lon="5.94174">
        <ele>-66.45</ele>
        <time>2015-10-11T10:43:01Z</time>
      </trkpt>
      <trkpt lat="47.06033" lon="5.94172">
        <ele>-66.48</ele>
        <time>2015-10-11T10:43:36Z</time>
      </trkpt>
      <trkpt lat="47.06032" lon="5.94172">
        <ele>-66.43</ele>
        <time>2015-10-11T10:44:05Z</time>
      </trkpt>
      <trkpt lat="47.06032" lon="5.94173">
        <ele>-66.58</ele>
        <time>2015-10-11T10:44:35Z</time>
      </trkpt>
      <trkpt lat="47.06032" lon="5.94173">
        <ele>-66.51</ele>
        <time>2015-10-11T10:45:23Z</time>
      </trkpt>
      <trkpt lat="47.06032" lon="5.94172">
        <ele>-66.19</ele>
        <time>2015-10-11T10:46:21Z</time>
      </trkpt>
      <trkpt lat="47.06031" lon="5.9417">
        <ele>-66.35</ele>
        <time>2015-10-11T10:47:38Z</time>
      </trkpt>
      <trkpt lat="47.06031" lon="5.9417">
        <ele>-66.09</ele>
        <time>2015-10-11T10:48:36Z</time>
      </trkpt>
      <trkpt lat="47.06031" lon="5.9417">
        <ele>-65.89</ele>
        <time>2015-10-11T10:50:05Z</time>
      </trkpt>
      <trkpt lat="47.06031" lon="5.9417">
        <ele>-65.19</ele>
        <time>2015-10-11T10:51:17Z</time>
      </trkpt>
      <trkpt lat="47.0603" lon="5.94168">
        <ele>-65.03</ele>
        <time>2015-10-11T10:52:58Z</time>
      </trkpt>
      <trkpt lat="47.06031" lon="5.94169">
        <ele>-64.89</ele>
        <time>2015-10-11T10:54:22Z</time>
      </trkpt>
      <trkpt lat="47.06032" lon="5.9417">
        <ele>-65.03</ele>
        <time>2015-10-11T10:55:44Z</time>
      </trkpt>
      <trkpt lat="47.06032" lon="5.94171">
        <ele>-64.48</ele>
        <time>2015-10-11T10:56:49Z</time>
      </trkpt>
      <trkpt lat="47.06032" lon="5.9417">
        <ele>-64.29</ele>
        <time>2015-10-11T10:58:02Z</time>
      </trkpt>
      <trkpt lat="47.06032" lon="5.94172">
        <ele>-64.76</ele>
        <time>2015-10-11T10:59:10Z</time>
      </trkpt>
      <trkpt lat="47.06032" lon="5.94172">
        <ele>-64.48</ele>
        <time>2015-10-11T11:00:32Z</time>
      </trkpt>
      <trkpt lat="47.06032" lon="5.94171">
        <ele>-64.53</ele>
        <time>2015-10-11T11:02:04Z</time>
      </trkpt>
      <trkpt lat="47.06033" lon="5.9417">
        <ele>-63.94</ele>
        <time>2015-10-11T11:03:11Z</time>
      </trkpt>
      <trkpt lat="47.06033" lon="5.9417">
        <ele>-64.37</ele>
        <time>2015-10-11T11:04:18Z</time>
      </trkpt>
      <trkpt lat="47.06032" lon="5.94171">
        <ele>-64.47</ele>
        <time>2015-10-11T11:05:24Z</time>
      </trkpt>
      <trkpt lat="47.06031" lon="5.94171">
        <ele>-64.59</ele>
        <time>2015-10-11T11:06:32Z</time>
      </trkpt>
      <trkpt lat="47.06031" lon="5.94171">
        <ele>-64.85</ele>
        <time>2015-10-11T11:07:43Z</time>
      </trkpt>
      <trkpt lat="47.06032" lon="5.9417">
        <ele>-64.62</ele>
        <time>2015-10-11T11:09:03Z</time>
      </trkpt>
      <trkpt lat="47.06033" lon="5.94169">
        <ele>-64.36</ele>
        <time>2015-10-11T11:09:49Z</time>
      </trkpt>
      <trkpt lat="47.06033" lon="5.94169">
        <ele>-65.02</ele>
        <time>2015-10-11T11:11:00Z</time>
      </trkpt>
      <trkpt lat="47.06033" lon="5.9417">
        <ele>-64.34</ele>
        <time>2015-10-11T11:12:26Z</time>
      </trkpt>
      <trkpt lat="47.06032" lon="5.94171">
        <ele>-64.57</ele>
        <time>2015-10-11T11:13:26Z</time>
      </trkpt>
      <trkpt lat="47.06029" lon="5.94173">
        <ele>-64.32</ele>
        <time>2015-10-11T11:13:55Z</time>
      </trkpt>
      <trkpt lat="47.06029" lon="5.94174">
        <ele>-64.55</ele>
        <time>2015-10-11T11:14:17Z</time>
      </trkpt>
      <trkpt lat="47.06029" lon="5.94173">
        <ele>-64.4</ele>
        <time>2015-10-11T11:14:42Z</time>
      </trkpt>
      <trkpt lat="47.06029" lon="5.94171">
        <ele>-64.59</ele>
        <time>2015-10-11T11:15:09Z</time>
      </trkpt>
      <trkpt lat="47.0603" lon="5.94172">
        <ele>-64</ele>
        <time>2015-10-11T11:15:36Z</time>
      </trkpt>
      <trkpt lat="47.0603" lon="5.94172">
        <ele>-64.2</ele>
        <time>2015-10-11T11:16:02Z</time>
      </trkpt>
      <trkpt lat="47.0603" lon="5.94169">
        <ele>-64.37</ele>
        <time>2015-10-11T11:16:27Z</time>
      </trkpt>
      <trkpt lat="47.06031" lon="5.94168">
        <ele>-64.28</ele>
        <time>2015-10-11T11:16:53Z</time>
      </trkpt>
      <trkpt lat="47.06031" lon="5.94168">
        <ele>-64.11</ele>
        <time>2015-10-11T11:17:25Z</time>
      </trkpt>
      <trkpt lat="47.06032" lon="5.94167">
        <ele>-63.93</ele>
        <time>2015-10-11T11:17:45Z</time>
      </trkpt>
      <trkpt lat="47.06032" lon="5.94168">
        <ele>-64.13</ele>
        <time>2015-10-11T11:18:15Z</time>
      </trkpt>
      <trkpt lat="47.06033" lon="5.94168">
        <ele>-64.12</ele>
        <time>2015-10-11T11:18:39Z</time>
      </trkpt>
      <trkpt lat="47.06035" lon="5.94168">
        <ele>-63.91</ele>
        <time>2015-10-11T11:19:05Z</time>
      </trkpt>
      <trkpt lat="47.06033" lon="5.9417">
        <ele>-63.78</ele>
        <time>2015-10-11T11:19:27Z</time>
      </trkpt>
      <trkpt lat="47.06033" lon="5.9417">
        <ele>-63.78</ele>
        <time>2015-10-11T11:19:28Z</time>
      </trkpt>
      <trkpt lat="47.06033" lon="5.94171">
        <ele>-63.74</ele>
        <time>2015-10-11T11:19:58Z</time>
      </trkpt>
      <trkpt lat="47.06033" lon="5.9417">
        <ele>-63.84</ele>
        <time>2015-10-11T11:20:07Z</time>
      </trkpt>
      <trkpt lat="47.06033" lon="5.9417">
        <ele>-63.84</ele>
        <time>2015-10-11T11:20:08Z</time>
      </trkpt>
      <trkpt lat="47.06033" lon="5.94171">
        <ele>-63.69</ele>
        <time>2015-10-11T11:20:39Z</time>
      </trkpt>
      <trkpt lat="47.06032" lon="5.9417">
        <ele>-63.13</ele>
        <time>2015-10-11T11:21:57Z</time>
      </trkpt>
      <trkpt lat="47.06031" lon="5.9417">
        <ele>-63.73</ele>
        <time>2015-10-11T11:23:02Z</time>
      </trkpt>
      <trkpt lat="47.06031" lon="5.9417">
        <ele>-63.08</ele>
        <time>2015-10-11T11:23:57Z</time>
      </trkpt>
      <trkpt lat="47.0603" lon="5.94172">
        <ele>-63.29</ele>
        <time>2015-10-11T11:24:05Z</time>
      </trkpt>
      <trkpt lat="47.06038" lon="5.94187">
        <ele>-65.36</ele>
        <time>2015-10-11T11:24:27Z</time>
      </trkpt>
      <trkpt lat="47.06048" lon="5.94173">
        <ele>-68.53</ele>
        <time>2015-10-11T11:24:45Z</time>
      </trkpt>
      <trkpt lat="47.06052" lon="5.94169">
        <ele>-69.36</ele>
        <time>2015-10-11T11:24:50Z</time>
      </trkpt>
      <trkpt lat="47.06059" lon="5.9416">
        <ele>-71.4</ele>
        <time>2015-10-11T11:25:00Z</time>
      </trkpt>
      <trkpt lat="47.0606" lon="5.94158">
        <ele>-71.86</ele>
        <time>2015-10-11T11:25:02Z</time>
      </trkpt>
      <trkpt lat="47.06061" lon="5.94156">
        <ele>-72.32</ele>
        <time>2015-10-11T11:25:04Z</time>
      </trkpt>
      <trkpt lat="47.06064" lon="5.94147">
        <ele>-73.96</ele>
        <time>2015-10-11T11:25:14Z</time>
      </trkpt>
      <trkpt lat="47.06069" lon="5.9414">
        <ele>-75.59</ele>
        <time>2015-10-11T11:25:23Z</time>
      </trkpt>
      <trkpt lat="47.0607" lon="5.94138">
        <ele>-75.9</ele>
        <time>2015-10-11T11:25:25Z</time>
      </trkpt>
      <trkpt lat="47.06074" lon="5.94134">
        <ele>-76.63</ele>
        <time>2015-10-11T11:25:29Z</time>
      </trkpt>
      <trkpt lat="47.06082" lon="5.94128">
        <ele>-77.73</ele>
        <time>2015-10-11T11:25:42Z</time>
      </trkpt>
      <trkpt lat="47.06082" lon="5.94128">
        <ele>-77.84</ele>
        <time>2015-10-11T11:25:43Z</time>
      </trkpt>
      <trkpt lat="47.06098" lon="5.94118">
        <ele>-79.91</ele>
        <time>2015-10-11T11:25:59Z</time>
      </trkpt>
      <trkpt lat="47.0611" lon="5.94106">
        <ele>-81.63</ele>
        <time>2015-10-11T11:26:11Z</time>
      </trkpt>
      <trkpt lat="47.06114" lon="5.94104">
        <ele>-82.33</ele>
        <time>2015-10-11T11:26:15Z</time>
      </trkpt>
      <trkpt lat="47.06118" lon="5.94102">
        <ele>-83.61</ele>
        <time>2015-10-11T11:26:20Z</time>
      </trkpt>
      <trkpt lat="47.0612" lon="5.94102">
        <ele>-84.18</ele>
        <time>2015-10-11T11:26:22Z</time>
      </trkpt>
      <trkpt lat="47.06129" lon="5.94098">
        <ele>-85.99</ele>
        <time>2015-10-11T11:26:30Z</time>
      </trkpt>
      <trkpt lat="47.0614" lon="5.94099">
        <ele>-88.86</ele>
        <time>2015-10-11T11:26:42Z</time>
      </trkpt>
      <trkpt lat="47.06148" lon="5.941">
        <ele>-90.21</ele>
        <time>2015-10-11T11:26:55Z</time>
      </trkpt>
      <trkpt lat="47.06163" lon="5.9411">
        <ele>-93.33</ele>
        <time>2015-10-11T11:27:16Z</time>
      </trkpt>
      <trkpt lat="47.06176" lon="5.94123">
        <ele>-96.4</ele>
        <time>2015-10-11T11:27:34Z</time>
      </trkpt>
      <trkpt lat="47.0619" lon="5.9414">
        <ele>-99.57</ele>
        <time>2015-10-11T11:27:53Z</time>
      </trkpt>
      <trkpt lat="47.06202" lon="5.94154">
        <ele>-101.39</ele>
        <time>2015-10-11T11:28:07Z</time>
      </trkpt>
      <trkpt lat="47.06215" lon="5.94167">
        <ele>-103.37</ele>
        <time>2015-10-11T11:28:21Z</time>
      </trkpt>
      <trkpt lat="47.06247" lon="5.94188">
        <ele>-105.73</ele>
        <time>2015-10-11T11:28:47Z</time>
      </trkpt>
      <trkpt lat="47.06258" lon="5.94204">
        <ele>-108.75</ele>
        <time>2015-10-11T11:29:04Z</time>
      </trkpt>
      <trkpt lat="47.06272" lon="5.94215">
        <ele>-111.82</ele>
        <time>2015-10-11T11:29:21Z</time>
      </trkpt>
      <trkpt lat="47.06286" lon="5.94225">
        <ele>-114.99</ele>
        <time>2015-10-11T11:29:37Z</time>
      </trkpt>
      <trkpt lat="47.06298" lon="5.94235">
        <ele>-118</ele>
        <time>2015-10-11T11:29:52Z</time>
      </trkpt>
      <trkpt lat="47.06314" lon="5.94249">
        <ele>-121.13</ele>
        <time>2015-10-11T11:30:09Z</time>
      </trkpt>
      <trkpt lat="47.06332" lon="5.94277">
        <ele>-123.94</ele>
        <time>2015-10-11T11:30:34Z</time>
      </trkpt>
      <trkpt lat="47.06334" lon="5.94276">
        <ele>-123.47</ele>
        <time>2015-10-11T11:31:05Z</time>
      </trkpt>
      <trkpt lat="47.06324" lon="5.94281">
        <ele>-126.49</ele>
        <time>2015-10-11T11:31:27Z</time>
      </trkpt>
      <trkpt lat="47.06316" lon="5.9428">
        <ele>-129.12</ele>
        <time>2015-10-11T11:31:38Z</time>
      </trkpt>
      <trkpt lat="47.063" lon="5.94276">
        <ele>-130.69</ele>
        <time>2015-10-11T11:31:53Z</time>
      </trkpt>
      <trkpt lat="47.06292" lon="5.94276">
        <ele>-131.33</ele>
        <time>2015-10-11T11:32:00Z</time>
      </trkpt>
      <trkpt lat="47.06279" lon="5.94279">
        <ele>-134</ele>
        <time>2015-10-11T11:32:16Z</time>
      </trkpt>
      <trkpt lat="47.06272" lon="5.94286">
        <ele>-137.04</ele>
        <time>2015-10-11T11:32:26Z</time>
      </trkpt>
      <trkpt lat="47.06265" lon="5.94293">
        <ele>-140.31</ele>
        <time>2015-10-11T11:32:36Z</time>
      </trkpt>
      <trkpt lat="47.0626" lon="5.94292">
        <ele>-142.06</ele>
        <time>2015-10-11T11:32:51Z</time>
      </trkpt>
      <trkpt lat="47.06251" lon="5.94288">
        <ele>-142.91</ele>
        <time>2015-10-11T11:33:15Z</time>
      </trkpt>
      <trkpt lat="47.06252" lon="5.94285">
        <ele>-143.05</ele>
        <time>2015-10-11T11:33:46Z</time>
      </trkpt>
      <trkpt lat="47.06251" lon="5.94285">
        <ele>-143.24</ele>
        <time>2015-10-11T11:34:05Z</time>
      </trkpt>
      <trkpt lat="47.06243" lon="5.94282">
        <ele>-142.62</ele>
        <time>2015-10-11T11:34:31Z</time>
      </trkpt>
      <trkpt lat="47.06241" lon="5.94281">
        <ele>-142.18</ele>
        <time>2015-10-11T11:34:57Z</time>
      </trkpt>
      <trkpt lat="47.06234" lon="5.94281">
        <ele>-142.39</ele>
        <time>2015-10-11T11:35:24Z</time>
      </trkpt>
      <trkpt lat="47.06226" lon="5.94292">
        <ele>-145.62</ele>
        <time>2015-10-11T11:35:43Z</time>
      </trkpt>
      <trkpt lat="47.06225" lon="5.94305">
        <ele>-148.8</ele>
        <time>2015-10-11T11:35:54Z</time>
      </trkpt>
      <trkpt lat="47.06215" lon="5.94326">
        <ele>-151.64</ele>
        <time>2015-10-11T11:36:20Z</time>
      </trkpt>
      <trkpt lat="47.06197" lon="5.94338">
        <ele>-153.37</ele>
        <time>2015-10-11T11:36:43Z</time>
      </trkpt>
      <trkpt lat="47.06194" lon="5.94362">
        <ele>-153.87</ele>
        <time>2015-10-11T11:37:03Z</time>
      </trkpt>
      <trkpt lat="47.06181" lon="5.94394">
        <ele>-154.46</ele>
        <time>2015-10-11T11:37:31Z</time>
      </trkpt>
      <trkpt lat="47.06175" lon="5.94415">
        <ele>-154.69</ele>
        <time>2015-10-11T11:37:44Z</time>
      </trkpt>
      <trkpt lat="47.06175" lon="5.94457">
        <ele>-154.84</ele>
        <time>2015-10-11T11:38:08Z</time>
      </trkpt>
      <trkpt lat="47.06172" lon="5.94497">
        <ele>-155.3</ele>
        <time>2015-10-11T11:38:31Z</time>
      </trkpt>
      <trkpt lat="47.06175" lon="5.94516">
        <ele>-156.21</ele>
        <time>2015-10-11T11:38:43Z</time>
      </trkpt>
      <trkpt lat="47.06177" lon="5.94524">
        <ele>-156.42</ele>
        <time>2015-10-11T11:38:47Z</time>
      </trkpt>
      <trkpt lat="47.06181" lon="5.94554">
        <ele>-156.96</ele>
        <time>2015-10-11T11:39:10Z</time>
      </trkpt>
      <trkpt lat="47.06179" lon="5.94553">
        <ele>-157.12</ele>
        <time>2015-10-11T11:39:42Z</time>
      </trkpt>
      <trkpt lat="47.06178" lon="5.9456">
        <ele>-157.32</ele>
        <time>2015-10-11T11:40:12Z</time>
      </trkpt>
      <trkpt lat="47.06188" lon="5.94586">
        <ele>-158.75</ele>
        <time>2015-10-11T11:40:39Z</time>
      </trkpt>
      <trkpt lat="47.06194" lon="5.94604">
        <ele>-159.34</ele>
        <time>2015-10-11T11:41:08Z</time>
      </trkpt>
      <trkpt lat="47.0619" lon="5.94625">
        <ele>-159.92</ele>
        <time>2015-10-11T11:41:22Z</time>
      </trkpt>
      <trkpt lat="47.06189" lon="5.94636">
        <ele>-160.28</ele>
        <time>2015-10-11T11:41:29Z</time>
      </trkpt>
      <trkpt lat="47.06187" lon="5.94664">
        <ele>-160.87</ele>
        <time>2015-10-11T11:41:44Z</time>
      </trkpt>
      <trkpt lat="47.06173" lon="5.94685">
        <ele>-161.18</ele>
        <time>2015-10-11T11:42:04Z</time>
      </trkpt>
      <trkpt lat="47.06165" lon="5.94705">
        <ele>-161.66</ele>
        <time>2015-10-11T11:42:26Z</time>
      </trkpt>
      <trkpt lat="47.0615" lon="5.94722">
        <ele>-162.46</ele>
        <time>2015-10-11T11:42:43Z</time>
      </trkpt>
      <trkpt lat="47.0614" lon="5.94742">
        <ele>-162.59</ele>
        <time>2015-10-11T11:42:56Z</time>
      </trkpt>
      <trkpt lat="47.06125" lon="5.94766">
        <ele>-162.35</ele>
        <time>2015-10-11T11:43:14Z</time>
      </trkpt>
      <trkpt lat="47.06118" lon="5.94776">
        <ele>-162.54</ele>
        <time>2015-10-11T11:43:33Z</time>
      </trkpt>
      <trkpt lat="47.06118" lon="5.94778">
        <ele>-162.72</ele>
        <time>2015-10-11T11:43:34Z</time>
      </trkpt>
      <trkpt lat="47.06116" lon="5.94805">
        <ele>-162.25</ele>
        <time>2015-10-11T11:43:50Z</time>
      </trkpt>
      <trkpt lat="47.06123" lon="5.94815">
        <ele>-162.34</ele>
        <time>2015-10-11T11:43:56Z</time>
      </trkpt>
      <trkpt lat="47.06122" lon="5.94827">
        <ele>-162.96</ele>
        <time>2015-10-11T11:44:09Z</time>
      </trkpt>
      <trkpt lat="47.06118" lon="5.94843">
        <ele>-162.79</ele>
        <time>2015-10-11T11:44:31Z</time>
      </trkpt>
      <trkpt lat="47.06116" lon="5.94855">
        <ele>-163.04</ele>
        <time>2015-10-11T11:44:50Z</time>
      </trkpt>
      <trkpt lat="47.06122" lon="5.94864">
        <ele>-163.26</ele>
        <time>2015-10-11T11:45:03Z</time>
      </trkpt>
      <trkpt lat="47.06127" lon="5.94872">
        <ele>-163.98</ele>
        <time>2015-10-11T11:45:10Z</time>
      </trkpt>
      <trkpt lat="47.0613" lon="5.94878">
        <ele>-163.99</ele>
        <time>2015-10-11T11:45:25Z</time>
      </trkpt>
      <trkpt lat="47.06128" lon="5.94883">
        <ele>-163.88</ele>
        <time>2015-10-11T11:45:51Z</time>
      </trkpt>
      <trkpt lat="47.06127" lon="5.94885">
        <ele>-163.93</ele>
        <time>2015-10-11T11:45:52Z</time>
      </trkpt>
      <trkpt lat="47.06123" lon="5.949">
        <ele>-164.29</ele>
        <time>2015-10-11T11:46:16Z</time>
      </trkpt>
      <trkpt lat="47.06123" lon="5.949">
        <ele>-164.2</ele>
        <time>2015-10-11T11:46:37Z</time>
      </trkpt>
      <trkpt lat="47.06121" lon="5.94919">
        <ele>-163.73</ele>
        <time>2015-10-11T11:46:55Z</time>
      </trkpt>
      <trkpt lat="47.06107" lon="5.94943">
        <ele>-163.88</ele>
        <time>2015-10-11T11:47:14Z</time>
      </trkpt>
      <trkpt lat="47.06089" lon="5.9495">
        <ele>-163.84</ele>
        <time>2015-10-11T11:47:30Z</time>
      </trkpt>
      <trkpt lat="47.06083" lon="5.94947">
        <ele>-163.89</ele>
        <time>2015-10-11T11:47:36Z</time>
      </trkpt>
      <trkpt lat="47.06079" lon="5.94952">
        <ele>-164.47</ele>
        <time>2015-10-11T11:47:41Z</time>
      </trkpt>
      <trkpt lat="47.06061" lon="5.94961">
        <ele>-164.68</ele>
        <time>2015-10-11T11:48:00Z</time>
      </trkpt>
      <trkpt lat="47.06038" lon="5.94973">
        <ele>-165.48</ele>
        <time>2015-10-11T11:48:27Z</time>
      </trkpt>
      <trkpt lat="47.06024" lon="5.94987">
        <ele>-165.5</ele>
        <time>2015-10-11T11:48:49Z</time>
      </trkpt>
      <trkpt lat="47.06014" lon="5.95006">
        <ele>-165.28</ele>
        <time>2015-10-11T11:49:09Z</time>
      </trkpt>
      <trkpt lat="47.06004" lon="5.95031">
        <ele>-165.68</ele>
        <time>2015-10-11T11:49:30Z</time>
      </trkpt>
      <trkpt lat="47.05988" lon="5.95072">
        <ele>-166.4</ele>
        <time>2015-10-11T11:49:53Z</time>
      </trkpt>
      <trkpt lat="47.05975" lon="5.95112">
        <ele>-167.33</ele>
        <time>2015-10-11T11:50:17Z</time>
      </trkpt>
      <trkpt lat="47.05971" lon="5.95136">
        <ele>-167.79</ele>
        <time>2015-10-11T11:50:33Z</time>
      </trkpt>
      <trkpt lat="47.05972" lon="5.95146">
        <ele>-167.88</ele>
        <time>2015-10-11T11:50:39Z</time>
      </trkpt>
      <trkpt lat="47.05966" lon="5.95176">
        <ele>-168.17</ele>
        <time>2015-10-11T11:50:56Z</time>
      </trkpt>
      <trkpt lat="47.05963" lon="5.95199">
        <ele>-168.49</ele>
        <time>2015-10-11T11:51:11Z</time>
      </trkpt>
      <trkpt lat="47.05962" lon="5.9521">
        <ele>-168.73</ele>
        <time>2015-10-11T11:51:19Z</time>
      </trkpt>
      <trkpt lat="47.05959" lon="5.95216">
        <ele>-169.03</ele>
        <time>2015-10-11T11:51:41Z</time>
      </trkpt>
      <trkpt lat="47.05959" lon="5.95221">
        <ele>-168.95</ele>
        <time>2015-10-11T11:51:44Z</time>
      </trkpt>
      <trkpt lat="47.05954" lon="5.9526">
        <ele>-169.05</ele>
        <time>2015-10-11T11:52:03Z</time>
      </trkpt>
      <trkpt lat="47.05952" lon="5.95269">
        <ele>-169.38</ele>
        <time>2015-10-11T11:52:08Z</time>
      </trkpt>
      <trkpt lat="47.05951" lon="5.95277">
        <ele>-169.38</ele>
        <time>2015-10-11T11:52:12Z</time>
      </trkpt>
      <trkpt lat="47.0595" lon="5.95295">
        <ele>-169.49</ele>
        <time>2015-10-11T11:52:22Z</time>
      </trkpt>
      <trkpt lat="47.05953" lon="5.95322">
        <ele>-169.69</ele>
        <time>2015-10-11T11:52:36Z</time>
      </trkpt>
      <trkpt lat="47.05959" lon="5.95341">
        <ele>-169.67</ele>
        <time>2015-10-11T11:52:52Z</time>
      </trkpt>
      <trkpt lat="47.05959" lon="5.95348">
        <ele>-169.81</ele>
        <time>2015-10-11T11:53:14Z</time>
      </trkpt>
      <trkpt lat="47.05961" lon="5.95354">
        <ele>-170.17</ele>
        <time>2015-10-11T11:53:37Z</time>
      </trkpt>
      <trkpt lat="47.05961" lon="5.95366">
        <ele>-170.29</ele>
        <time>2015-10-11T11:53:56Z</time>
      </trkpt>
      <trkpt lat="47.05964" lon="5.95376">
        <ele>-170.07</ele>
        <time>2015-10-11T11:54:16Z</time>
      </trkpt>
      <trkpt lat="47.05963" lon="5.95376">
        <ele>-170.01</ele>
        <time>2015-10-11T11:54:40Z</time>
      </trkpt>
      <trkpt lat="47.05963" lon="5.95377">
        <ele>-170.04</ele>
        <time>2015-10-11T11:55:08Z</time>
      </trkpt>
      <trkpt lat="47.05966" lon="5.95408">
        <ele>-170.15</ele>
        <time>2015-10-11T11:55:27Z</time>
      </trkpt>
      <trkpt lat="47.05965" lon="5.95427">
        <ele>-170.58</ele>
        <time>2015-10-11T11:55:38Z</time>
      </trkpt>
      <trkpt lat="47.05969" lon="5.95462">
        <ele>-170.54</ele>
        <time>2015-10-11T11:55:55Z</time>
      </trkpt>
      <trkpt lat="47.05968" lon="5.95484">
        <ele>-170.17</ele>
        <time>2015-10-11T11:56:09Z</time>
      </trkpt>
      <trkpt lat="47.0597" lon="5.95507">
        <ele>-170.45</ele>
        <time>2015-10-11T11:56:31Z</time>
      </trkpt>
      <trkpt lat="47.05978" lon="5.9551">
        <ele>-170.94</ele>
        <time>2015-10-11T11:56:47Z</time>
      </trkpt>
      <trkpt lat="47.05993" lon="5.95513">
        <ele>-170.6</ele>
        <time>2015-10-11T11:57:03Z</time>
      </trkpt>
      <trkpt lat="47.06004" lon="5.95525">
        <ele>-170.34</ele>
        <time>2015-10-11T11:57:24Z</time>
      </trkpt>
      <trkpt lat="47.0601" lon="5.95562">
        <ele>-170.29</ele>
        <time>2015-10-11T11:57:54Z</time>
      </trkpt>
      <trkpt lat="47.06011" lon="5.95584">
        <ele>-170.32</ele>
        <time>2015-10-11T11:58:16Z</time>
      </trkpt>
      <trkpt lat="47.06021" lon="5.95593">
        <ele>-169.17</ele>
        <time>2015-10-11T11:58:38Z</time>
      </trkpt>
      <trkpt lat="47.06033" lon="5.95597">
        <ele>-166.9</ele>
        <time>2015-10-11T11:59:04Z</time>
      </trkpt>
      <trkpt lat="47.0602" lon="5.95591">
        <ele>-168.4</ele>
        <time>2015-10-11T11:59:25Z</time>
      </trkpt>
      <trkpt lat="47.06015" lon="5.95599">
        <ele>-169.26</ele>
        <time>2015-10-11T11:59:34Z</time>
      </trkpt>
      <trkpt lat="47.06012" lon="5.95635">
        <ele>-169.31</ele>
        <time>2015-10-11T12:00:01Z</time>
      </trkpt>
      <trkpt lat="47.06016" lon="5.9564">
        <ele>-167.89</ele>
        <time>2015-10-11T12:00:21Z</time>
      </trkpt>
      <trkpt lat="47.06013" lon="5.95641">
        <ele>-168.27</ele>
        <time>2015-10-11T12:00:37Z</time>
      </trkpt>
      <trkpt lat="47.0601" lon="5.95645">
        <ele>-168.34</ele>
        <time>2015-10-11T12:01:00Z</time>
      </trkpt>
      <trkpt lat="47.06021" lon="5.95639">
        <ele>-167.7</ele>
        <time>2015-10-11T12:01:20Z</time>
      </trkpt>
      <trkpt lat="47.0602" lon="5.95643">
        <ele>-167.52</ele>
        <time>2015-10-11T12:01:45Z</time>
      </trkpt>
      <trkpt lat="47.0602" lon="5.95643">
        <ele>-167.42</ele>
        <time>2015-10-11T12:02:14Z</time>
      </trkpt>
      <trkpt lat="47.06028" lon="5.95632">
        <ele>-167.28</ele>
        <time>2015-10-11T12:02:43Z</time>
      </trkpt>
      <trkpt lat="47.06026" lon="5.95632">
        <ele>-167.08</ele>
        <time>2015-10-11T12:02:46Z</time>
      </trkpt>
      <trkpt lat="47.06025" lon="5.9563">
        <ele>-166.98</ele>
        <time>2015-10-11T12:02:50Z</time>
      </trkpt>
      <trkpt lat="47.06014" lon="5.9564">
        <ele>-168.31</ele>
        <time>2015-10-11T12:03:11Z</time>
      </trkpt>
      <trkpt lat="47.06011" lon="5.95626">
        <ele>-169.93</ele>
        <time>2015-10-11T12:03:31Z</time>
      </trkpt>
      <trkpt lat="47.06011" lon="5.95595">
        <ele>-169.49</ele>
        <time>2015-10-11T12:03:54Z</time>
      </trkpt>
      <trkpt lat="47.06008" lon="5.95552">
        <ele>-170.17</ele>
        <time>2015-10-11T12:04:22Z</time>
      </trkpt>
      <trkpt lat="47.06012" lon="5.95533">
        <ele>-169.86</ele>
        <time>2015-10-11T12:04:47Z</time>
      </trkpt>
      <trkpt lat="47.06011" lon="5.95524">
        <ele>-170.12</ele>
        <time>2015-10-11T12:04:58Z</time>
      </trkpt>
      <trkpt lat="47.06012" lon="5.95519">
        <ele>-170.01</ele>
        <time>2015-10-11T12:05:01Z</time>
      </trkpt>
      <trkpt lat="47.0603" lon="5.95517">
        <ele>-169.32</ele>
        <time>2015-10-11T12:05:19Z</time>
      </trkpt>
      <trkpt lat="47.06044" lon="5.95517">
        <ele>-168.47</ele>
        <time>2015-10-11T12:05:34Z</time>
      </trkpt>
      <trkpt lat="47.06052" lon="5.95523">
        <ele>-167.44</ele>
        <time>2015-10-11T12:05:44Z</time>
      </trkpt>
      <trkpt lat="47.06067" lon="5.95521">
        <ele>-166.23</ele>
        <time>2015-10-11T12:06:03Z</time>
      </trkpt>
      <trkpt lat="47.06085" lon="5.95525">
        <ele>-164.21</ele>
        <time>2015-10-11T12:06:24Z</time>
      </trkpt>
      <trkpt lat="47.06092" lon="5.95529">
        <ele>-163.18</ele>
        <time>2015-10-11T12:06:47Z</time>
      </trkpt>
      <trkpt lat="47.06094" lon="5.95533">
        <ele>-162.28</ele>
        <time>2015-10-11T12:07:04Z</time>
      </trkpt>
      <trkpt lat="47.06093" lon="5.95533">
        <ele>-162.21</ele>
        <time>2015-10-11T12:07:23Z</time>
      </trkpt>
      <trkpt lat="47.06097" lon="5.95536">
        <ele>-161.92</ele>
        <time>2015-10-11T12:07:44Z</time>
      </trkpt>
      <trkpt lat="47.06098" lon="5.95541">
        <ele>-161.44</ele>
        <time>2015-10-11T12:08:07Z</time>
      </trkpt>
      <trkpt lat="47.06099" lon="5.95543">
        <ele>-161.29</ele>
        <time>2015-10-11T12:08:09Z</time>
      </trkpt>
      <trkpt lat="47.06116" lon="5.95574">
        <ele>-158.42</ele>
        <time>2015-10-11T12:08:34Z</time>
      </trkpt>
      <trkpt lat="47.06121" lon="5.95585">
        <ele>-156.91</ele>
        <time>2015-10-11T12:08:47Z</time>
      </trkpt>
      <trkpt lat="47.06131" lon="5.95599">
        <ele>-154.79</ele>
        <time>2015-10-11T12:09:11Z</time>
      </trkpt>
      <trkpt lat="47.06142" lon="5.95627">
        <ele>-151.74</ele>
        <time>2015-10-11T12:09:32Z</time>
      </trkpt>
      <trkpt lat="47.06152" lon="5.95647">
        <ele>-148.59</ele>
        <time>2015-10-11T12:09:50Z</time>
      </trkpt>
      <trkpt lat="47.0616" lon="5.95669">
        <ele>-145.58</ele>
        <time>2015-10-11T12:10:07Z</time>
      </trkpt>
      <trkpt lat="47.06166" lon="5.95688">
        <ele>-142.52</ele>
        <time>2015-10-11T12:10:25Z</time>
      </trkpt>
      <trkpt lat="47.06175" lon="5.95705">
        <ele>-139.47</ele>
        <time>2015-10-11T12:10:44Z</time>
      </trkpt>
      <trkpt lat="47.06188" lon="5.95715">
        <ele>-136.44</ele>
        <time>2015-10-11T12:11:02Z</time>
      </trkpt>
      <trkpt lat="47.06205" lon="5.95716">
        <ele>-133.34</ele>
        <time>2015-10-11T12:11:21Z</time>
      </trkpt>
      <trkpt lat="47.0622" lon="5.95727">
        <ele>-130.21</ele>
        <time>2015-10-11T12:11:42Z</time>
      </trkpt>
      <trkpt lat="47.06228" lon="5.9575">
        <ele>-127.21</ele>
        <time>2015-10-11T12:12:05Z</time>
      </trkpt>
      <trkpt lat="47.06226" lon="5.95776">
        <ele>-124.77</ele>
        <time>2015-10-11T12:12:28Z</time>
      </trkpt>
      <trkpt lat="47.06232" lon="5.95797">
        <ele>-121.96</ele>
        <time>2015-10-11T12:12:49Z</time>
      </trkpt>
      <trkpt lat="47.06243" lon="5.95815">
        <ele>-118.79</ele>
        <time>2015-10-11T12:13:11Z</time>
      </trkpt>
      <trkpt lat="47.06255" lon="5.95831">
        <ele>-115.64</ele>
        <time>2015-10-11T12:13:30Z</time>
      </trkpt>
      <trkpt lat="47.06265" lon="5.95858">
        <ele>-112.97</ele>
        <time>2015-10-11T12:13:54Z</time>
      </trkpt>
      <trkpt lat="47.06268" lon="5.95893">
        <ele>-110.24</ele>
        <time>2015-10-11T12:14:22Z</time>
      </trkpt>
      <trkpt lat="47.06272" lon="5.95921">
        <ele>-107.16</ele>
        <time>2015-10-11T12:14:45Z</time>
      </trkpt>
      <trkpt lat="47.06279" lon="5.95944">
        <ele>-104.03</ele>
        <time>2015-10-11T12:15:04Z</time>
      </trkpt>
      <trkpt lat="47.06288" lon="5.95969">
        <ele>-100.98</ele>
        <time>2015-10-11T12:15:24Z</time>
      </trkpt>
      <trkpt lat="47.06294" lon="5.95995">
        <ele>-97.8</ele>
        <time>2015-10-11T12:15:46Z</time>
      </trkpt>
      <trkpt lat="47.06298" lon="5.96016">
        <ele>-94.69</ele>
        <time>2015-10-11T12:16:06Z</time>
      </trkpt>
      <trkpt lat="47.06307" lon="5.96045">
        <ele>-91.58</ele>
        <time>2015-10-11T12:16:29Z</time>
      </trkpt>
      <trkpt lat="47.06309" lon="5.96075">
        <ele>-89.23</ele>
        <time>2015-10-11T12:16:48Z</time>
      </trkpt>
      <trkpt lat="47.06312" lon="5.9609">
        <ele>-88.37</ele>
        <time>2015-10-11T12:16:57Z</time>
      </trkpt>
      <trkpt lat="47.06311" lon="5.96094">
        <ele>-88.18</ele>
        <time>2015-10-11T12:17:00Z</time>
      </trkpt>
      <trkpt lat="47.06311" lon="5.96113">
        <ele>-87.11</ele>
        <time>2015-10-11T12:17:13Z</time>
      </trkpt>
      <trkpt lat="47.06313" lon="5.96137">
        <ele>-85.81</ele>
        <time>2015-10-11T12:17:32Z</time>
      </trkpt>
      <trkpt lat="47.06311" lon="5.96179">
        <ele>-82.98</ele>
        <time>2015-10-11T12:17:58Z</time>
      </trkpt>
      <trkpt lat="47.06314" lon="5.96212">
        <ele>-80.23</ele>
        <time>2015-10-11T12:18:22Z</time>
      </trkpt>
      <trkpt lat="47.06317" lon="5.9624">
        <ele>-77.88</ele>
        <time>2015-10-11T12:18:41Z</time>
      </trkpt>
      <trkpt lat="47.06318" lon="5.96254">
        <ele>-76.77</ele>
        <time>2015-10-11T12:18:55Z</time>
      </trkpt>
      <trkpt lat="47.06315" lon="5.96253">
        <ele>-76.85</ele>
        <time>2015-10-11T12:19:22Z</time>
      </trkpt>
      <trkpt lat="47.06312" lon="5.96252">
        <ele>-76.69</ele>
        <time>2015-10-11T12:19:51Z</time>
      </trkpt>
      <trkpt lat="47.06313" lon="5.96251">
        <ele>-76.74</ele>
        <time>2015-10-11T12:20:23Z</time>
      </trkpt>
      <trkpt lat="47.06312" lon="5.96252">
        <ele>-76.55</ele>
        <time>2015-10-11T12:20:53Z</time>
      </trkpt>
      <trkpt lat="47.06312" lon="5.96254">
        <ele>-76.58</ele>
        <time>2015-10-11T12:21:23Z</time>
      </trkpt>
      <trkpt lat="47.06317" lon="5.96243">
        <ele>-75.73</ele>
        <time>2015-10-11T12:21:48Z</time>
      </trkpt>
      <trkpt lat="47.06318" lon="5.96214">
        <ele>-73.54</ele>
        <time>2015-10-11T12:22:15Z</time>
      </trkpt>
      <trkpt lat="47.0632" lon="5.96183">
        <ele>-73.75</ele>
        <time>2015-10-11T12:22:40Z</time>
      </trkpt>
      <trkpt lat="47.06327" lon="5.96139">
        <ele>-73.98</ele>
        <time>2015-10-11T12:23:07Z</time>
      </trkpt>
      <trkpt lat="47.06328" lon="5.96102">
        <ele>-75.21</ele>
        <time>2015-10-11T12:23:30Z</time>
      </trkpt>
      <trkpt lat="47.0633" lon="5.96069">
        <ele>-77.04</ele>
        <time>2015-10-11T12:23:54Z</time>
      </trkpt>
      <trkpt lat="47.0633" lon="5.96022">
        <ele>-78.25</ele>
        <time>2015-10-11T12:24:22Z</time>
      </trkpt>
      <trkpt lat="47.06328" lon="5.96001">
        <ele>-78.42</ele>
        <time>2015-10-11T12:24:34Z</time>
      </trkpt>
      <trkpt lat="47.06325" lon="5.95993">
        <ele>-78.58</ele>
        <time>2015-10-11T12:25:00Z</time>
      </trkpt>
      <trkpt lat="47.06325" lon="5.95989">
        <ele>-78.52</ele>
        <time>2015-10-11T12:25:03Z</time>
      </trkpt>
      <trkpt lat="47.06322" lon="5.9595">
        <ele>-79.38</ele>
        <time>2015-10-11T12:25:28Z</time>
      </trkpt>
      <trkpt lat="47.06319" lon="5.95907">
        <ele>-80.35</ele>
        <time>2015-10-11T12:26:00Z</time>
      </trkpt>
      <trkpt lat="47.06318" lon="5.95861">
        <ele>-82.04</ele>
        <time>2015-10-11T12:26:25Z</time>
      </trkpt>
      <trkpt lat="47.06317" lon="5.95823">
        <ele>-83.3</ele>
        <time>2015-10-11T12:26:51Z</time>
      </trkpt>
      <trkpt lat="47.06318" lon="5.95773">
        <ele>-83.78</ele>
        <time>2015-10-11T12:27:19Z</time>
      </trkpt>
      <trkpt lat="47.06323" lon="5.95732">
        <ele>-85.11</ele>
        <time>2015-10-11T12:27:41Z</time>
      </trkpt>
      <trkpt lat="47.0633" lon="5.95701">
        <ele>-85.35</ele>
        <time>2015-10-11T12:28:03Z</time>
      </trkpt>
      <trkpt lat="47.06335" lon="5.95682">
        <ele>-85.48</ele>
        <time>2015-10-11T12:28:34Z</time>
      </trkpt>
      <trkpt lat="47.06337" lon="5.95639">
        <ele>-86.94</ele>
        <time>2015-10-11T12:29:00Z</time>
      </trkpt>
      <trkpt lat="47.06345" lon="5.95603">
        <ele>-88.82</ele>
        <time>2015-10-11T12:29:23Z</time>
      </trkpt>
      <trkpt lat="47.06347" lon="5.95597">
        <ele>-88.79</ele>
        <time>2015-10-11T12:29:49Z</time>
      </trkpt>
      <trkpt lat="47.06351" lon="5.95571">
        <ele>-89.2</ele>
        <time>2015-10-11T12:30:08Z</time>
      </trkpt>
      <trkpt lat="47.06355" lon="5.95566">
        <ele>-89.04</ele>
        <time>2015-10-11T12:30:13Z</time>
      </trkpt>
      <trkpt lat="47.06365" lon="5.95541">
        <ele>-89.12</ele>
        <time>2015-10-11T12:30:33Z</time>
      </trkpt>
      <trkpt lat="47.06376" lon="5.95501">
        <ele>-89.5</ele>
        <time>2015-10-11T12:30:56Z</time>
      </trkpt>
      <trkpt lat="47.06386" lon="5.95475">
        <ele>-90.99</ele>
        <time>2015-10-11T12:31:12Z</time>
      </trkpt>
      <trkpt lat="47.06396" lon="5.9546">
        <ele>-91.53</ele>
        <time>2015-10-11T12:31:26Z</time>
      </trkpt>
      <trkpt lat="47.06407" lon="5.95444">
        <ele>-91.37</ele>
        <time>2015-10-11T12:31:48Z</time>
      </trkpt>
      <trkpt lat="47.06419" lon="5.95446">
        <ele>-88.18</ele>
        <time>2015-10-11T12:32:04Z</time>
      </trkpt>
      <trkpt lat="47.0643" lon="5.95443">
        <ele>-85.01</ele>
        <time>2015-10-11T12:32:21Z</time>
      </trkpt>
      <trkpt lat="47.06442" lon="5.95443">
        <ele>-81.9</ele>
        <time>2015-10-11T12:32:39Z</time>
      </trkpt>
      <trkpt lat="47.06464" lon="5.95438">
        <ele>-79.03</ele>
        <time>2015-10-11T12:33:01Z</time>
      </trkpt>
      <trkpt lat="47.06479" lon="5.95437">
        <ele>-75.97</ele>
        <time>2015-10-11T12:33:21Z</time>
      </trkpt>
      <trkpt lat="47.06497" lon="5.95437">
        <ele>-72.84</ele>
        <time>2015-10-11T12:33:42Z</time>
      </trkpt>
      <trkpt lat="47.06514" lon="5.95439">
        <ele>-69.81</ele>
        <time>2015-10-11T12:34:04Z</time>
      </trkpt>
      <trkpt lat="47.0653" lon="5.95444">
        <ele>-66.71</ele>
        <time>2015-10-11T12:34:24Z</time>
      </trkpt>
      <trkpt lat="47.06538" lon="5.95446">
        <ele>-65.65</ele>
        <time>2015-10-11T12:34:33Z</time>
      </trkpt>
      <trkpt lat="47.06555" lon="5.95462">
        <ele>-63.09</ele>
        <time>2015-10-11T12:34:57Z</time>
      </trkpt>
      <trkpt lat="47.06563" lon="5.95479">
        <ele>-60.04</ele>
        <time>2015-10-11T12:35:16Z</time>
      </trkpt>
      <trkpt lat="47.06573" lon="5.95492">
        <ele>-57.02</ele>
        <time>2015-10-11T12:35:32Z</time>
      </trkpt>
      <trkpt lat="47.0658" lon="5.95508">
        <ele>-53.94</ele>
        <time>2015-10-11T12:35:50Z</time>
      </trkpt>
      <trkpt lat="47.06581" lon="5.95509">
        <ele>-53.82</ele>
        <time>2015-10-11T12:35:52Z</time>
      </trkpt>
      <trkpt lat="47.06584" lon="5.95513">
        <ele>-53.8</ele>
        <time>2015-10-11T12:36:19Z</time>
      </trkpt>
      <trkpt lat="47.06584" lon="5.95519">
        <ele>-53.3</ele>
        <time>2015-10-11T12:36:48Z</time>
      </trkpt>
      <trkpt lat="47.06586" lon="5.95523">
        <ele>-51.74</ele>
        <time>2015-10-11T12:37:20Z</time>
      </trkpt>
      <trkpt lat="47.06585" lon="5.95521">
        <ele>-52.28</ele>
        <time>2015-10-11T12:37:50Z</time>
      </trkpt>
      <trkpt lat="47.06582" lon="5.95513">
        <ele>-53.11</ele>
        <time>2015-10-11T12:38:19Z</time>
      </trkpt>
      <trkpt lat="47.06581" lon="5.95513">
        <ele>-53.11</ele>
        <time>2015-10-11T12:38:21Z</time>
      </trkpt>
      <trkpt lat="47.06582" lon="5.95515">
        <ele>-53.03</ele>
        <time>2015-10-11T12:38:50Z</time>
      </trkpt>
      <trkpt lat="47.06587" lon="5.95521">
        <ele>-53.02</ele>
        <time>2015-10-11T12:39:19Z</time>
      </trkpt>
      <trkpt lat="47.06587" lon="5.95523">
        <ele>-53.32</ele>
        <time>2015-10-11T12:39:45Z</time>
      </trkpt>
      <trkpt lat="47.06587" lon="5.95524">
        <ele>-52.97</ele>
        <time>2015-10-11T12:40:19Z</time>
      </trkpt>
      <trkpt lat="47.06584" lon="5.95522">
        <ele>-53.19</ele>
        <time>2015-10-11T12:40:57Z</time>
      </trkpt>
      <trkpt lat="47.06586" lon="5.95521">
        <ele>-52.25</ele>
        <time>2015-10-11T12:41:30Z</time>
      </trkpt>
      <trkpt lat="47.06587" lon="5.9553">
        <ele>-50.49</ele>
        <time>2015-10-11T12:41:42Z</time>
      </trkpt>
      <trkpt lat="47.06601" lon="5.95528">
        <ele>-47.23</ele>
        <time>2015-10-11T12:41:57Z</time>
      </trkpt>
      <trkpt lat="47.06606" lon="5.95541">
        <ele>-44.07</ele>
        <time>2015-10-11T12:42:11Z</time>
      </trkpt>
      <trkpt lat="47.06615" lon="5.9555">
        <ele>-41</ele>
        <time>2015-10-11T12:42:26Z</time>
      </trkpt>
      <trkpt lat="47.06611" lon="5.95555">
        <ele>-39.67</ele>
        <time>2015-10-11T12:42:49Z</time>
      </trkpt>
      <trkpt lat="47.06603" lon="5.95574">
        <ele>-36.54</ele>
        <time>2015-10-11T12:43:09Z</time>
      </trkpt>
      <trkpt lat="47.06576" lon="5.95584">
        <ele>-35.41</ele>
        <time>2015-10-11T12:43:35Z</time>
      </trkpt>
      <trkpt lat="47.06555" lon="5.95579">
        <ele>-34.78</ele>
        <time>2015-10-11T12:43:59Z</time>
      </trkpt>
      <trkpt lat="47.06532" lon="5.95566">
        <ele>-35.68</ele>
        <time>2015-10-11T12:44:22Z</time>
      </trkpt>
      <trkpt lat="47.06505" lon="5.95545">
        <ele>-35.76</ele>
        <time>2015-10-11T12:44:47Z</time>
      </trkpt>
      <trkpt lat="47.06478" lon="5.95532">
        <ele>-35.42</ele>
        <time>2015-10-11T12:45:13Z</time>
      </trkpt>
      <trkpt lat="47.0646" lon="5.95517">
        <ele>-34.49</ele>
        <time>2015-10-11T12:45:34Z</time>
      </trkpt>
      <trkpt lat="47.06458" lon="5.95515">
        <ele>-36</ele>
        <time>2015-10-11T12:45:55Z</time>
      </trkpt>
      <trkpt lat="47.06456" lon="5.95512">
        <ele>-36.12</ele>
        <time>2015-10-11T12:46:17Z</time>
      </trkpt>
      <trkpt lat="47.06457" lon="5.95511">
        <ele>-35.29</ele>
        <time>2015-10-11T12:46:39Z</time>
      </trkpt>
      <trkpt lat="47.06457" lon="5.95512">
        <ele>-35.37</ele>
        <time>2015-10-11T12:47:07Z</time>
      </trkpt>
      <trkpt lat="47.06458" lon="5.9551">
        <ele>-35.02</ele>
        <time>2015-10-11T12:47:32Z</time>
      </trkpt>
      <trkpt lat="47.06458" lon="5.9551">
        <ele>-35.29</ele>
        <time>2015-10-11T12:48:42Z</time>
      </trkpt>
      <trkpt lat="47.06456" lon="5.95515">
        <ele>-35.06</ele>
        <time>2015-10-11T12:49:14Z</time>
      </trkpt>
      <trkpt lat="47.06457" lon="5.95517">
        <ele>-35.21</ele>
        <time>2015-10-11T12:49:29Z</time>
      </trkpt>
      <trkpt lat="47.06457" lon="5.95517">
        <ele>-35.51</ele>
        <time>2015-10-11T12:49:52Z</time>
      </trkpt>
      <trkpt lat="47.06457" lon="5.95517">
        <ele>-35.23</ele>
        <time>2015-10-11T12:50:26Z</time>
      </trkpt>
      <trkpt lat="47.06457" lon="5.95516">
        <ele>-35.34</ele>
        <time>2015-10-11T12:50:51Z</time>
      </trkpt>
      <trkpt lat="47.06458" lon="5.95516">
        <ele>-35.29</ele>
        <time>2015-10-11T12:51:18Z</time>
      </trkpt>
      <trkpt lat="47.06458" lon="5.95515">
        <ele>-34.01</ele>
        <time>2015-10-11T12:51:40Z</time>
      </trkpt>
      <trkpt lat="47.06459" lon="5.95517">
        <ele>-34.39</ele>
        <time>2015-10-11T12:52:09Z</time>
      </trkpt>
      <trkpt lat="47.06459" lon="5.95516">
        <ele>-34.4</ele>
        <time>2015-10-11T12:52:34Z</time>
      </trkpt>
      <trkpt lat="47.0646" lon="5.95517">
        <ele>-34.76</ele>
        <time>2015-10-11T12:52:58Z</time>
      </trkpt>
      <trkpt lat="47.0646" lon="5.95517">
        <ele>-34.53</ele>
        <time>2015-10-11T12:53:22Z</time>
      </trkpt>
      <trkpt lat="47.0646" lon="5.95518">
        <ele>-34.46</ele>
        <time>2015-10-11T12:53:50Z</time>
      </trkpt>
      <trkpt lat="47.06459" lon="5.95519">
        <ele>-34.22</ele>
        <time>2015-10-11T12:54:14Z</time>
      </trkpt>
      <trkpt lat="47.06468" lon="5.95528">
        <ele>-33.65</ele>
        <time>2015-10-11T12:54:37Z</time>
      </trkpt>
      <trkpt lat="47.06478" lon="5.95527">
        <ele>-34.16</ele>
        <time>2015-10-11T12:55:00Z</time>
      </trkpt>
      <trkpt lat="47.06486" lon="5.95525">
        <ele>-34.28</ele>
        <time>2015-10-11T12:55:17Z</time>
      </trkpt>
      <trkpt lat="47.06491" lon="5.95524">
        <ele>-33.98</ele>
        <time>2015-10-11T12:55:38Z</time>
      </trkpt>
      <trkpt lat="47.06505" lon="5.95534">
        <ele>-34.2</ele>
        <time>2015-10-11T12:56:05Z</time>
      </trkpt>
      <trkpt lat="47.06521" lon="5.9555">
        <ele>-34.19</ele>
        <time>2015-10-11T12:56:26Z</time>
      </trkpt>
      <trkpt lat="47.06535" lon="5.95567">
        <ele>-33.85</ele>
        <time>2015-10-11T12:56:49Z</time>
      </trkpt>
      <trkpt lat="47.06554" lon="5.95576">
        <ele>-33.5</ele>
        <time>2015-10-11T12:57:15Z</time>
      </trkpt>
      <trkpt lat="47.06583" lon="5.95587">
        <ele>-33.69</ele>
        <time>2015-10-11T12:57:44Z</time>
      </trkpt>
      <trkpt lat="47.06594" lon="5.95584">
        <ele>-34.67</ele>
        <time>2015-10-11T12:58:08Z</time>
      </trkpt>
      <trkpt lat="47.06603" lon="5.95569">
        <ele>-37.69</ele>
        <time>2015-10-11T12:58:31Z</time>
      </trkpt>
      <trkpt lat="47.06612" lon="5.95556">
        <ele>-38.86</ele>
        <time>2015-10-11T12:58:55Z</time>
      </trkpt>
      <trkpt lat="47.06617" lon="5.95553">
        <ele>-38.91</ele>
        <time>2015-10-11T12:59:20Z</time>
      </trkpt>
      <trkpt lat="47.0662" lon="5.95545">
        <ele>-36.5</ele>
        <time>2015-10-11T12:59:46Z</time>
      </trkpt>
      <trkpt lat="47.06633" lon="5.95519">
        <ele>-34.59</ele>
        <time>2015-10-11T13:00:10Z</time>
      </trkpt>
      <trkpt lat="47.06644" lon="5.95496">
        <ele>-33.14</ele>
        <time>2015-10-11T13:00:32Z</time>
      </trkpt>
      <trkpt lat="47.06646" lon="5.95484">
        <ele>-32.45</ele>
        <time>2015-10-11T13:00:40Z</time>
      </trkpt>
      <trkpt lat="47.06661" lon="5.95457">
        <ele>-30.94</ele>
        <time>2015-10-11T13:01:04Z</time>
      </trkpt>
      <trkpt lat="47.06669" lon="5.95425">
        <ele>-29.46</ele>
        <time>2015-10-11T13:01:28Z</time>
      </trkpt>
      <trkpt lat="47.06669" lon="5.95421">
        <ele>-29.54</ele>
        <time>2015-10-11T13:01:30Z</time>
      </trkpt>
      <trkpt lat="47.06666" lon="5.95396">
        <ele>-30.4</ele>
        <time>2015-10-11T13:01:45Z</time>
      </trkpt>
      <trkpt lat="47.06668" lon="5.95378">
        <ele>-31.71</ele>
        <time>2015-10-11T13:02:05Z</time>
      </trkpt>
      <trkpt lat="47.06667" lon="5.95354">
        <ele>-31.36</ele>
        <time>2015-10-11T13:02:30Z</time>
      </trkpt>
      <trkpt lat="47.06668" lon="5.95319">
        <ele>-31.39</ele>
        <time>2015-10-11T13:02:59Z</time>
      </trkpt>
      <trkpt lat="47.06666" lon="5.95282">
        <ele>-31.15</ele>
        <time>2015-10-11T13:03:24Z</time>
      </trkpt>
      <trkpt lat="47.06665" lon="5.95241">
        <ele>-31.81</ele>
        <time>2015-10-11T13:03:49Z</time>
      </trkpt>
      <trkpt lat="47.06666" lon="5.95226">
        <ele>-31.87</ele>
        <time>2015-10-11T13:04:12Z</time>
      </trkpt>
      <trkpt lat="47.06665" lon="5.95214">
        <ele>-32.68</ele>
        <time>2015-10-11T13:04:33Z</time>
      </trkpt>
      <trkpt lat="47.06667" lon="5.95186">
        <ele>-35.06</ele>
        <time>2015-10-11T13:04:55Z</time>
      </trkpt>
      <trkpt lat="47.06668" lon="5.95176">
        <ele>-35.82</ele>
        <time>2015-10-11T13:05:02Z</time>
      </trkpt>
      <trkpt lat="47.0667" lon="5.95158">
        <ele>-38.08</ele>
        <time>2015-10-11T13:05:18Z</time>
      </trkpt>
      <trkpt lat="47.06669" lon="5.95143">
        <ele>-41.18</ele>
        <time>2015-10-11T13:05:37Z</time>
      </trkpt>
      <trkpt lat="47.0667" lon="5.95139">
        <ele>-44.19</ele>
        <time>2015-10-11T13:05:53Z</time>
      </trkpt>
      <trkpt lat="47.06669" lon="5.95119">
        <ele>-46.45</ele>
        <time>2015-10-11T13:06:17Z</time>
      </trkpt>
      <trkpt lat="47.06669" lon="5.9511">
        <ele>-46.04</ele>
        <time>2015-10-11T13:06:26Z</time>
      </trkpt>
      <trkpt lat="47.0667" lon="5.95102">
        <ele>-45.64</ele>
        <time>2015-10-11T13:06:45Z</time>
      </trkpt>
      <trkpt lat="47.0667" lon="5.95091">
        <ele>-44.45</ele>
        <time>2015-10-11T13:06:55Z</time>
      </trkpt>
      <trkpt lat="47.06672" lon="5.95079">
        <ele>-42.18</ele>
        <time>2015-10-11T13:07:08Z</time>
      </trkpt>
      <trkpt lat="47.06671" lon="5.95057">
        <ele>-40.8</ele>
        <time>2015-10-11T13:07:35Z</time>
      </trkpt>
      <trkpt lat="47.06673" lon="5.95042">
        <ele>-38.12</ele>
        <time>2015-10-11T13:08:02Z</time>
      </trkpt>
      <trkpt lat="47.06673" lon="5.95041">
        <ele>-37.96</ele>
        <time>2015-10-11T13:08:04Z</time>
      </trkpt>
      <trkpt lat="47.06674" lon="5.95038">
        <ele>-37.76</ele>
        <time>2015-10-11T13:08:06Z</time>
      </trkpt>
      <trkpt lat="47.06677" lon="5.95029">
        <ele>-34.52</ele>
        <time>2015-10-11T13:08:30Z</time>
      </trkpt>
      <trkpt lat="47.0668" lon="5.95006">
        <ele>-32.38</ele>
        <time>2015-10-11T13:08:55Z</time>
      </trkpt>
      <trkpt lat="47.06679" lon="5.95002">
        <ele>-32.28</ele>
        <time>2015-10-11T13:09:26Z</time>
      </trkpt>
      <trkpt lat="47.0668" lon="5.95001">
        <ele>-32.51</ele>
        <time>2015-10-11T13:09:55Z</time>
      </trkpt>
      <trkpt lat="47.0668" lon="5.94996">
        <ele>-32.47</ele>
        <time>2015-10-11T13:10:16Z</time>
      </trkpt>
      <trkpt lat="47.06678" lon="5.94979">
        <ele>-32.41</ele>
        <time>2015-10-11T13:10:42Z</time>
      </trkpt>
      <trkpt lat="47.06676" lon="5.94965">
        <ele>-32.35</ele>
        <time>2015-10-11T13:11:05Z</time>
      </trkpt>
      <trkpt lat="47.06674" lon="5.94961">
        <ele>-32.42</ele>
        <time>2015-10-11T13:11:32Z</time>
      </trkpt>
      <trkpt lat="47.06673" lon="5.9495">
        <ele>-31.79</ele>
        <time>2015-10-11T13:11:56Z</time>
      </trkpt>
      <trkpt lat="47.06665" lon="5.94919">
        <ele>-31.77</ele>
        <time>2015-10-11T13:12:18Z</time>
      </trkpt>
      <trkpt lat="47.06665" lon="5.94887">
        <ele>-31.41</ele>
        <time>2015-10-11T13:12:40Z</time>
      </trkpt>
      <trkpt lat="47.06657" lon="5.94853">
        <ele>-32.18</ele>
        <time>2015-10-11T13:13:01Z</time>
      </trkpt>
      <trkpt lat="47.06644" lon="5.94824">
        <ele>-33.11</ele>
        <time>2015-10-11T13:13:21Z</time>
      </trkpt>
      <trkpt lat="47.06632" lon="5.94786">
        <ele>-34.92</ele>
        <time>2015-10-11T13:13:48Z</time>
      </trkpt>
      <trkpt lat="47.06625" lon="5.94763">
        <ele>-35.42</ele>
        <time>2015-10-11T13:14:09Z</time>
      </trkpt>
      <trkpt lat="47.06615" lon="5.94738">
        <ele>-35.53</ele>
        <time>2015-10-11T13:14:33Z</time>
      </trkpt>
      <trkpt lat="47.0661" lon="5.94718">
        <ele>-32.54</ele>
        <time>2015-10-11T13:14:58Z</time>
      </trkpt>
      <trkpt lat="47.06601" lon="5.94689">
        <ele>-32.37</ele>
        <time>2015-10-11T13:15:22Z</time>
      </trkpt>
      <trkpt lat="47.06596" lon="5.94664">
        <ele>-33.42</ele>
        <time>2015-10-11T13:15:48Z</time>
      </trkpt>
      <trkpt lat="47.06586" lon="5.94641">
        <ele>-34.95</ele>
        <time>2015-10-11T13:16:08Z</time>
      </trkpt>
      <trkpt lat="47.06574" lon="5.94621">
        <ele>-36.09</ele>
        <time>2015-10-11T13:16:26Z</time>
      </trkpt>
      <trkpt lat="47.0657" lon="5.94605">
        <ele>-37.32</ele>
        <time>2015-10-11T13:16:42Z</time>
      </trkpt>
      <trkpt lat="47.06568" lon="5.94599">
        <ele>-37.91</ele>
        <time>2015-10-11T13:17:07Z</time>
      </trkpt>
      <trkpt lat="47.06579" lon="5.94589">
        <ele>-36.26</ele>
        <time>2015-10-11T13:17:25Z</time>
      </trkpt>
      <trkpt lat="47.06587" lon="5.94588">
        <ele>-35.88</ele>
        <time>2015-10-11T13:17:40Z</time>
      </trkpt>
      <trkpt lat="47.06584" lon="5.9457">
        <ele>-36.62</ele>
        <time>2015-10-11T13:17:58Z</time>
      </trkpt>
      <trkpt lat="47.06571" lon="5.94545">
        <ele>-38.21</ele>
        <time>2015-10-11T13:18:21Z</time>
      </trkpt>
      <trkpt lat="47.06558" lon="5.94523">
        <ele>-39.62</ele>
        <time>2015-10-11T13:18:44Z</time>
      </trkpt>
      <trkpt lat="47.06542" lon="5.94496">
        <ele>-40.55</ele>
        <time>2015-10-11T13:19:08Z</time>
      </trkpt>
      <trkpt lat="47.06535" lon="5.94482">
        <ele>-40.9</ele>
        <time>2015-10-11T13:19:18Z</time>
      </trkpt>
      <trkpt lat="47.06518" lon="5.94441">
        <ele>-42.31</ele>
        <time>2015-10-11T13:19:46Z</time>
      </trkpt>
      <trkpt lat="47.065" lon="5.94403">
        <ele>-43.16</ele>
        <time>2015-10-11T13:20:13Z</time>
      </trkpt>
      <trkpt lat="47.06487" lon="5.94366">
        <ele>-44.89</ele>
        <time>2015-10-11T13:20:36Z</time>
      </trkpt>
      <trkpt lat="47.06469" lon="5.94324">
        <ele>-46.46</ele>
        <time>2015-10-11T13:21:01Z</time>
      </trkpt>
      <trkpt lat="47.06449" lon="5.94286">
        <ele>-47.52</ele>
        <time>2015-10-11T13:21:28Z</time>
      </trkpt>
      <trkpt lat="47.06432" lon="5.94252">
        <ele>-47.74</ele>
        <time>2015-10-11T13:21:50Z</time>
      </trkpt>
      <trkpt lat="47.0642" lon="5.94225">
        <ele>-48.37</ele>
        <time>2015-10-11T13:22:10Z</time>
      </trkpt>
      <trkpt lat="47.06403" lon="5.9419">
        <ele>-49.62</ele>
        <time>2015-10-11T13:22:34Z</time>
      </trkpt>
      <trkpt lat="47.06381" lon="5.94159">
        <ele>-50.55</ele>
        <time>2015-10-11T13:23:00Z</time>
      </trkpt>
      <trkpt lat="47.06357" lon="5.94133">
        <ele>-51.57</ele>
        <time>2015-10-11T13:23:27Z</time>
      </trkpt>
      <trkpt lat="47.0633" lon="5.94105">
        <ele>-51.84</ele>
        <time>2015-10-11T13:23:53Z</time>
      </trkpt>
      <trkpt lat="47.06304" lon="5.94084">
        <ele>-51.77</ele>
        <time>2015-10-11T13:24:18Z</time>
      </trkpt>
      <trkpt lat="47.06276" lon="5.94063">
        <ele>-52.12</ele>
        <time>2015-10-11T13:24:45Z</time>
      </trkpt>
      <trkpt lat="47.06243" lon="5.94043">
        <ele>-52.23</ele>
        <time>2015-10-11T13:25:11Z</time>
      </trkpt>
      <trkpt lat="47.06218" lon="5.94038">
        <ele>-52.47</ele>
        <time>2015-10-11T13:25:32Z</time>
      </trkpt>
      <trkpt lat="47.06188" lon="5.94029">
        <ele>-52.91</ele>
        <time>2015-10-11T13:25:57Z</time>
      </trkpt>
      <trkpt lat="47.06182" lon="5.94033">
        <ele>-52.97</ele>
        <time>2015-10-11T13:26:16Z</time>
      </trkpt>
      <trkpt lat="47.0618" lon="5.94031">
        <ele>-52.52</ele>
        <time>2015-10-11T13:26:44Z</time>
      </trkpt>
      <trkpt lat="47.0618" lon="5.94031">
        <ele>-52.36</ele>
        <time>2015-10-11T13:26:46Z</time>
      </trkpt>
      <trkpt lat="47.06178" lon="5.94031">
        <ele>-52.77</ele>
        <time>2015-10-11T13:27:13Z</time>
      </trkpt>
      <trkpt lat="47.06179" lon="5.94031">
        <ele>-52.77</ele>
        <time>2015-10-11T13:27:37Z</time>
      </trkpt>
      <trkpt lat="47.0618" lon="5.94033">
        <ele>-52.36</ele>
        <time>2015-10-11T13:28:05Z</time>
      </trkpt>
      <trkpt lat="47.0618" lon="5.94033">
        <ele>-52.84</ele>
        <time>2015-10-11T13:28:34Z</time>
      </trkpt>
      <trkpt lat="47.06181" lon="5.94031">
        <ele>-53.03</ele>
        <time>2015-10-11T13:29:02Z</time>
      </trkpt>
      <trkpt lat="47.06179" lon="5.94033">
        <ele>-52.55</ele>
        <time>2015-10-11T13:29:27Z</time>
      </trkpt>
      <trkpt lat="47.06178" lon="5.94034">
        <ele>-52.64</ele>
        <time>2015-10-11T13:30:01Z</time>
      </trkpt>
      <trkpt lat="47.06179" lon="5.94037">
        <ele>-52.56</ele>
        <time>2015-10-11T13:30:37Z</time>
      </trkpt>
      <trkpt lat="47.06181" lon="5.94036">
        <ele>-52.75</ele>
        <time>2015-10-11T13:31:02Z</time>
      </trkpt>
      <trkpt lat="47.06181" lon="5.94036">
        <ele>-52.55</ele>
        <time>2015-10-11T13:31:27Z</time>
      </trkpt>
      <trkpt lat="47.06179" lon="5.94035">
        <ele>-52.6</ele>
        <time>2015-10-11T13:31:57Z</time>
      </trkpt>
      <trkpt lat="47.06179" lon="5.9403">
        <ele>-53.12</ele>
        <time>2015-10-11T13:32:21Z</time>
      </trkpt>
      <trkpt lat="47.06171" lon="5.9402">
        <ele>-53.55</ele>
        <time>2015-10-11T13:32:32Z</time>
      </trkpt>
      <trkpt lat="47.06143" lon="5.94021">
        <ele>-53.5</ele>
        <time>2015-10-11T13:32:56Z</time>
      </trkpt>
      <trkpt lat="47.06121" lon="5.94033">
        <ele>-54</ele>
        <time>2015-10-11T13:33:19Z</time>
      </trkpt>
      <trkpt lat="47.06099" lon="5.94055">
        <ele>-54.49</ele>
        <time>2015-10-11T13:33:43Z</time>
      </trkpt>
      <trkpt lat="47.06073" lon="5.94079">
        <ele>-55.97</ele>
        <time>2015-10-11T13:34:09Z</time>
      </trkpt>
      <trkpt lat="47.06059" lon="5.94098">
        <ele>-57.39</ele>
        <time>2015-10-11T13:34:26Z</time>
      </trkpt>
      <trkpt lat="47.06045" lon="5.94141">
        <ele>-59.16</ele>
        <time>2015-10-11T13:34:52Z</time>
      </trkpt>
      <trkpt lat="47.0604" lon="5.94166">
        <ele>-59.78</ele>
        <time>2015-10-11T13:35:09Z</time>
      </trkpt>
      <trkpt lat="47.06039" lon="5.94175">
        <ele>-60.45</ele>
        <time>2015-10-11T13:35:26Z</time>
      </trkpt>
      <trkpt lat="47.06038" lon="5.94175">
        <ele>-60.37</ele>
        <time>2015-10-11T13:35:49Z</time>
      </trkpt>
      <trkpt lat="47.06037" lon="5.94173">
        <ele>-60.7</ele>
        <time>2015-10-11T13:36:14Z</time>
      </trkpt>
      <trkpt lat="47.06035" lon="5.94174">
        <ele>-60.55</ele>
        <time>2015-10-11T13:36:38Z</time>
      </trkpt>
      <trkpt lat="47.06035" lon="5.94174">
        <ele>-59.72</ele>
        <time>2015-10-11T13:37:06Z</time>
      </trkpt>
      <trkpt lat="47.06036" lon="5.94169">
        <ele>-59.98</ele>
        <time>2015-10-11T13:37:34Z</time>
      </trkpt>
      <trkpt lat="47.06035" lon="5.94172">
        <ele>-60.38</ele>
        <time>2015-10-11T13:37:53Z</time>
      </trkpt>
      <trkpt lat="47.06036" lon="5.94171">
        <ele>-60.1</ele>
        <time>2015-10-11T13:38:19Z</time>
      </trkpt>
      <trkpt lat="47.06036" lon="5.94171">
        <ele>-59.6</ele>
        <time>2015-10-11T13:38:38Z</time>
      </trkpt>
      <trkpt lat="47.06035" lon="5.94172">
        <ele>-59.87</ele>
        <time>2015-10-11T13:38:58Z</time>
      </trkpt>
      <trkpt lat="47.06036" lon="5.94171">
        <ele>-60.29</ele>
        <time>2015-10-11T13:39:16Z</time>
      </trkpt>
      <trkpt lat="47.06036" lon="5.94167">
        <ele>-60.31</ele>
        <time>2015-10-11T13:39:39Z</time>
      </trkpt>
      <trkpt lat="47.06035" lon="5.94167">
        <ele>-60.13</ele>
        <time>2015-10-11T13:40:02Z</time>
      </trkpt>
      <trkpt lat="47.06036" lon="5.94168">
        <ele>-59.91</ele>
        <time>2015-10-11T13:40:27Z</time>
      </trkpt>
      <trkpt lat="47.06036" lon="5.9417">
        <ele>-60.02</ele>
        <time>2015-10-11T13:40:51Z</time>
      </trkpt>
      <trkpt lat="47.06036" lon="5.94171">
        <ele>-59.45</ele>
        <time>2015-10-11T13:41:11Z</time>
      </trkpt>
      <trkpt lat="47.06035" lon="5.94172">
        <ele>-60.14</ele>
        <time>2015-10-11T13:41:29Z</time>
      </trkpt>
      <trkpt lat="47.06036" lon="5.94172">
        <ele>-60.25</ele>
        <time>2015-10-11T13:41:56Z</time>
      </trkpt>
      <trkpt lat="47.06036" lon="5.94173">
        <ele>-59.92</ele>
        <time>2015-10-11T13:42:20Z</time>
      </trkpt>
      <trkpt lat="47.06034" lon="5.94172">
        <ele>-59.66</ele>
        <time>2015-10-11T13:42:42Z</time>
      </trkpt>
      <trkpt lat="47.06033" lon="5.94173">
        <ele>-59.74</ele>
        <time>2015-10-11T13:43:02Z</time>
      </trkpt>
      <trkpt lat="47.06032" lon="5.94173">
        <ele>-60.05</ele>
        <time>2015-10-11T13:43:31Z</time>
      </trkpt>
      <trkpt lat="47.06032" lon="5.94173">
        <ele>-60.1</ele>
        <time>2015-10-11T13:43:56Z</time>
      </trkpt>
      <trkpt lat="47.06033" lon="5.94172">
        <ele>-60.09</ele>
        <time>2015-10-11T13:44:20Z</time>
      </trkpt>
      <trkpt lat="47.06034" lon="5.94171">
        <ele>-60.08</ele>
        <time>2015-10-11T13:44:46Z</time>
      </trkpt>
      <trkpt lat="47.06034" lon="5.94171">
        <ele>-60.03</ele>
        <time>2015-10-11T13:45:09Z</time>
      </trkpt>
      <trkpt lat="47.06035" lon="5.94171">
        <ele>-60.23</ele>
        <time>2015-10-11T13:45:34Z</time>
      </trkpt>
      <trkpt lat="47.06034" lon="5.94173">
        <ele>-60.25</ele>
        <time>2015-10-11T13:46:00Z</time>
      </trkpt>
      <trkpt lat="47.06032" lon="5.94194">
        <ele>-60.43</ele>
        <time>2015-10-11T13:46:19Z</time>
      </trkpt>
      <trkpt lat="47.06017" lon="5.94221">
        <ele>-60.68</ele>
        <time>2015-10-11T13:46:40Z</time>
      </trkpt>
      <trkpt lat="47.06003" lon="5.94251">
        <ele>-59.46</ele>
        <time>2015-10-11T13:47:03Z</time>
      </trkpt>
      <trkpt lat="47.05992" lon="5.9428">
        <ele>-57.26</ele>
        <time>2015-10-11T13:47:27Z</time>
      </trkpt>
      <trkpt lat="47.05979" lon="5.94314">
        <ele>-55.27</ele>
        <time>2015-10-11T13:47:53Z</time>
      </trkpt>
      <trkpt lat="47.05965" lon="5.94347">
        <ele>-52.88</ele>
        <time>2015-10-11T13:48:22Z</time>
      </trkpt>
      <trkpt lat="47.05957" lon="5.94374">
        <ele>-50.87</ele>
        <time>2015-10-11T13:48:44Z</time>
      </trkpt>
      <trkpt lat="47.0595" lon="5.94404">
        <ele>-48.66</ele>
        <time>2015-10-11T13:49:08Z</time>
      </trkpt>
      <trkpt lat="47.05944" lon="5.94434">
        <ele>-47.17</ele>
        <time>2015-10-11T13:49:31Z</time>
      </trkpt>
      <trkpt lat="47.0594" lon="5.94466">
        <ele>-45.18</ele>
        <time>2015-10-11T13:49:56Z</time>
      </trkpt>
      <trkpt lat="47.0593" lon="5.945">
        <ele>-43.62</ele>
        <time>2015-10-11T13:50:19Z</time>
      </trkpt>
      <trkpt lat="47.05925" lon="5.94518">
        <ele>-43.06</ele>
        <time>2015-10-11T13:50:44Z</time>
      </trkpt>
      <trkpt lat="47.05912" lon="5.94545">
        <ele>-44.37</ele>
        <time>2015-10-11T13:51:07Z</time>
      </trkpt>
      <trkpt lat="47.05903" lon="5.94574">
        <ele>-47.44</ele>
        <time>2015-10-11T13:51:29Z</time>
      </trkpt>
      <trkpt lat="47.059" lon="5.94606">
        <ele>-50.46</ele>
        <time>2015-10-11T13:51:52Z</time>
      </trkpt>
      <trkpt lat="47.05893" lon="5.94617">
        <ele>-51.73</ele>
        <time>2015-10-11T13:52:02Z</time>
      </trkpt>
      <trkpt lat="47.05869" lon="5.94644">
        <ele>-53.92</ele>
        <time>2015-10-11T13:52:33Z</time>
      </trkpt>
      <trkpt lat="47.05857" lon="5.94649">
        <ele>-54.22</ele>
        <time>2015-10-11T13:52:46Z</time>
      </trkpt>
      <trkpt lat="47.05835" lon="5.94649">
        <ele>-52.59</ele>
        <time>2015-10-11T13:53:09Z</time>
      </trkpt>
      <trkpt lat="47.05816" lon="5.94647">
        <ele>-51</ele>
        <time>2015-10-11T13:53:32Z</time>
      </trkpt>
      <trkpt lat="47.05793" lon="5.9466">
        <ele>-50.6</ele>
        <time>2015-10-11T13:53:57Z</time>
      </trkpt>
      <trkpt lat="47.05773" lon="5.94676">
        <ele>-51.81</ele>
        <time>2015-10-11T13:54:20Z</time>
      </trkpt>
      <trkpt lat="47.05747" lon="5.94706">
        <ele>-53.44</ele>
        <time>2015-10-11T13:54:47Z</time>
      </trkpt>
      <trkpt lat="47.05735" lon="5.94732">
        <ele>-55.69</ele>
        <time>2015-10-11T13:55:11Z</time>
      </trkpt>
      <trkpt lat="47.0573" lon="5.9475">
        <ele>-57.39</ele>
        <time>2015-10-11T13:55:26Z</time>
      </trkpt>
      <trkpt lat="47.05723" lon="5.94766">
        <ele>-59.88</ele>
        <time>2015-10-11T13:55:40Z</time>
      </trkpt>
      <trkpt lat="47.05717" lon="5.9478">
        <ele>-61.78</ele>
        <time>2015-10-11T13:55:55Z</time>
      </trkpt>
      <trkpt lat="47.05714" lon="5.94785">
        <ele>-63.6</ele>
        <time>2015-10-11T13:56:06Z</time>
      </trkpt>
      <trkpt lat="47.05704" lon="5.94799">
        <ele>-64.29</ele>
        <time>2015-10-11T13:56:21Z</time>
      </trkpt>
      <trkpt lat="47.05693" lon="5.94809">
        <ele>-63.97</ele>
        <time>2015-10-11T13:56:31Z</time>
      </trkpt>
      <trkpt lat="47.05687" lon="5.94821">
        <ele>-64.06</ele>
        <time>2015-10-11T13:56:41Z</time>
      </trkpt>
      <trkpt lat="47.05677" lon="5.94845">
        <ele>-63.96</ele>
        <time>2015-10-11T13:56:55Z</time>
      </trkpt>
      <trkpt lat="47.0567" lon="5.94861">
        <ele>-63.79</ele>
        <time>2015-10-11T13:57:10Z</time>
      </trkpt>
      <trkpt lat="47.05666" lon="5.94873">
        <ele>-63.07</ele>
        <time>2015-10-11T13:57:18Z</time>
      </trkpt>
      <trkpt lat="47.05664" lon="5.94888">
        <ele>-62.17</ele>
        <time>2015-10-11T13:57:33Z</time>
      </trkpt>
      <trkpt lat="47.0566" lon="5.94905">
        <ele>-61.26</ele>
        <time>2015-10-11T13:57:45Z</time>
      </trkpt>
      <trkpt lat="47.05648" lon="5.94927">
        <ele>-60.68</ele>
        <time>2015-10-11T13:58:01Z</time>
      </trkpt>
      <trkpt lat="47.05644" lon="5.94938">
        <ele>-59.88</ele>
        <time>2015-10-11T13:58:10Z</time>
      </trkpt>
      <trkpt lat="47.05641" lon="5.94956">
        <ele>-59.53</ele>
        <time>2015-10-11T13:58:26Z</time>
      </trkpt>
      <trkpt lat="47.05638" lon="5.94969">
        <ele>-59.02</ele>
        <time>2015-10-11T13:58:39Z</time>
      </trkpt>
      <trkpt lat="47.05625" lon="5.94989">
        <ele>-57.78</ele>
        <time>2015-10-11T13:58:55Z</time>
      </trkpt>
      <trkpt lat="47.05627" lon="5.95008">
        <ele>-56.55</ele>
        <time>2015-10-11T13:59:09Z</time>
      </trkpt>
      <trkpt lat="47.05626" lon="5.95013">
        <ele>-56.05</ele>
        <time>2015-10-11T13:59:14Z</time>
      </trkpt>
      <trkpt lat="47.05621" lon="5.95028">
        <ele>-55.41</ele>
        <time>2015-10-11T13:59:29Z</time>
      </trkpt>
      <trkpt lat="47.05621" lon="5.9503">
        <ele>-55.01</ele>
        <time>2015-10-11T13:59:33Z</time>
      </trkpt>
      <trkpt lat="47.05619" lon="5.95032">
        <ele>-54.9</ele>
        <time>2015-10-11T13:59:35Z</time>
      </trkpt>
      <trkpt lat="47.05618" lon="5.95041">
        <ele>-53.8</ele>
        <time>2015-10-11T13:59:48Z</time>
      </trkpt>
      <trkpt lat="47.0561" lon="5.95059">
        <ele>-53.18</ele>
        <time>2015-10-11T13:59:59Z</time>
      </trkpt>
      <trkpt lat="47.05608" lon="5.95064">
        <ele>-52.88</ele>
        <time>2015-10-11T14:00:02Z</time>
      </trkpt>
      <trkpt lat="47.05599" lon="5.95078">
        <ele>-51.8</ele>
        <time>2015-10-11T14:00:14Z</time>
      </trkpt>
      <trkpt lat="47.05593" lon="5.95092">
        <ele>-50.55</ele>
        <time>2015-10-11T14:00:26Z</time>
      </trkpt>
      <trkpt lat="47.05593" lon="5.95094">
        <ele>-50.42</ele>
        <time>2015-10-11T14:00:28Z</time>
      </trkpt>
      <trkpt lat="47.05587" lon="5.95114">
        <ele>-48.71</ele>
        <time>2015-10-11T14:00:44Z</time>
      </trkpt>
      <trkpt lat="47.05586" lon="5.95126">
        <ele>-47.57</ele>
        <time>2015-10-11T14:00:58Z</time>
      </trkpt>
      <trkpt lat="47.05587" lon="5.9514">
        <ele>-46.38</ele>
        <time>2015-10-11T14:01:11Z</time>
      </trkpt>
      <trkpt lat="47.05585" lon="5.95158">
        <ele>-45.47</ele>
        <time>2015-10-11T14:01:23Z</time>
      </trkpt>
      <trkpt lat="47.05582" lon="5.95175">
        <ele>-44.12</ele>
        <time>2015-10-11T14:01:38Z</time>
      </trkpt>
      <trkpt lat="47.0558" lon="5.95188">
        <ele>-42.87</ele>
        <time>2015-10-11T14:01:53Z</time>
      </trkpt>
      <trkpt lat="47.05577" lon="5.95191">
        <ele>-42.59</ele>
        <time>2015-10-11T14:01:57Z</time>
      </trkpt>
      <trkpt lat="47.0558" lon="5.95195">
        <ele>-41.49</ele>
        <time>2015-10-11T14:02:11Z</time>
      </trkpt>
      <trkpt lat="47.05579" lon="5.95206">
        <ele>-39.76</ele>
        <time>2015-10-11T14:02:29Z</time>
      </trkpt>
      <trkpt lat="47.05573" lon="5.95237">
        <ele>-37.79</ele>
        <time>2015-10-11T14:02:56Z</time>
      </trkpt>
      <trkpt lat="47.05561" lon="5.95267">
        <ele>-36.5</ele>
        <time>2015-10-11T14:03:19Z</time>
      </trkpt>
      <trkpt lat="47.05553" lon="5.9529">
        <ele>-36.74</ele>
        <time>2015-10-11T14:03:35Z</time>
      </trkpt>
      <trkpt lat="47.05552" lon="5.95311">
        <ele>-36.83</ele>
        <time>2015-10-11T14:03:49Z</time>
      </trkpt>
      <trkpt lat="47.05548" lon="5.9532">
        <ele>-37.01</ele>
        <time>2015-10-11T14:03:56Z</time>
      </trkpt>
      <trkpt lat="47.05538" lon="5.95342">
        <ele>-37.81</ele>
        <time>2015-10-11T14:04:13Z</time>
      </trkpt>
      <trkpt lat="47.05537" lon="5.95363">
        <ele>-38.93</ele>
        <time>2015-10-11T14:04:28Z</time>
      </trkpt>
      <trkpt lat="47.05536" lon="5.95373">
        <ele>-41.56</ele>
        <time>2015-10-11T14:04:42Z</time>
      </trkpt>
      <trkpt lat="47.05525" lon="5.95395">
        <ele>-42.93</ele>
        <time>2015-10-11T14:05:05Z</time>
      </trkpt>
      <trkpt lat="47.05497" lon="5.95416">
        <ele>-45.43</ele>
        <time>2015-10-11T14:05:32Z</time>
      </trkpt>
      <trkpt lat="47.05472" lon="5.95401">
        <ele>-45.33</ele>
        <time>2015-10-11T14:06:01Z</time>
      </trkpt>
      <trkpt lat="47.0547" lon="5.95395">
        <ele>-44.91</ele>
        <time>2015-10-11T14:06:05Z</time>
      </trkpt>
      <trkpt lat="47.05453" lon="5.95363">
        <ele>-43.98</ele>
        <time>2015-10-11T14:06:31Z</time>
      </trkpt>
      <trkpt lat="47.05434" lon="5.95333">
        <ele>-45.1</ele>
        <time>2015-10-11T14:06:57Z</time>
      </trkpt>
      <trkpt lat="47.05429" lon="5.95328">
        <ele>-46.32</ele>
        <time>2015-10-11T14:07:02Z</time>
      </trkpt>
      <trkpt lat="47.05402" lon="5.95312">
        <ele>-46.86</ele>
        <time>2015-10-11T14:07:27Z</time>
      </trkpt>
      <trkpt lat="47.05377" lon="5.95303">
        <ele>-47.91</ele>
        <time>2015-10-11T14:07:52Z</time>
      </trkpt>
      <trkpt lat="47.05348" lon="5.9529">
        <ele>-49.48</ele>
        <time>2015-10-11T14:08:16Z</time>
      </trkpt>
      <trkpt lat="47.05322" lon="5.95292">
        <ele>-49.33</ele>
        <time>2015-10-11T14:08:40Z</time>
      </trkpt>
      <trkpt lat="47.05292" lon="5.95287">
        <ele>-50.47</ele>
        <time>2015-10-11T14:09:06Z</time>
      </trkpt>
      <trkpt lat="47.05287" lon="5.95285">
        <ele>-50.54</ele>
        <time>2015-10-11T14:09:11Z</time>
      </trkpt>
      <trkpt lat="47.05258" lon="5.95275">
        <ele>-51.83</ele>
        <time>2015-10-11T14:09:37Z</time>
      </trkpt>
      <trkpt lat="47.05241" lon="5.95268">
        <ele>-52.94</ele>
        <time>2015-10-11T14:09:51Z</time>
      </trkpt>
      <trkpt lat="47.05231" lon="5.95259">
        <ele>-54.02</ele>
        <time>2015-10-11T14:10:05Z</time>
      </trkpt>
      <trkpt lat="47.05219" lon="5.95255">
        <ele>-53.86</ele>
        <time>2015-10-11T14:10:16Z</time>
      </trkpt>
      <trkpt lat="47.05214" lon="5.95254">
        <ele>-53.72</ele>
        <time>2015-10-11T14:10:35Z</time>
      </trkpt>
      <trkpt lat="47.05202" lon="5.95264">
        <ele>-54.32</ele>
        <time>2015-10-11T14:11:00Z</time>
      </trkpt>
      <trkpt lat="47.05197" lon="5.95272">
        <ele>-54.44</ele>
        <time>2015-10-11T14:11:15Z</time>
      </trkpt>
      <trkpt lat="47.05196" lon="5.95271">
        <ele>-54.65</ele>
        <time>2015-10-11T14:11:41Z</time>
      </trkpt>
      <trkpt lat="47.05196" lon="5.95278">
        <ele>-54.63</ele>
        <time>2015-10-11T14:11:53Z</time>
      </trkpt>
      <trkpt lat="47.05197" lon="5.95278">
        <ele>-55.22</ele>
        <time>2015-10-11T14:12:16Z</time>
      </trkpt>
      <trkpt lat="47.0519" lon="5.95274">
        <ele>-55.26</ele>
        <time>2015-10-11T14:12:33Z</time>
      </trkpt>
      <trkpt lat="47.05193" lon="5.95271">
        <ele>-55.26</ele>
        <time>2015-10-11T14:12:51Z</time>
      </trkpt>
      <trkpt lat="47.05199" lon="5.95277">
        <ele>-55.6</ele>
        <time>2015-10-11T14:13:12Z</time>
      </trkpt>
      <trkpt lat="47.05202" lon="5.95268">
        <ele>-55.23</ele>
        <time>2015-10-11T14:13:38Z</time>
      </trkpt>
      <trkpt lat="47.05204" lon="5.9526">
        <ele>-54.91</ele>
        <time>2015-10-11T14:14:04Z</time>
      </trkpt>
      <trkpt lat="47.05209" lon="5.95242">
        <ele>-54.78</ele>
        <time>2015-10-11T14:14:23Z</time>
      </trkpt>
      <trkpt lat="47.0521" lon="5.95228">
        <ele>-55.11</ele>
        <time>2015-10-11T14:14:46Z</time>
      </trkpt>
      <trkpt lat="47.05211" lon="5.95224">
        <ele>-55.09</ele>
        <time>2015-10-11T14:15:18Z</time>
      </trkpt>
      <trkpt lat="47.05211" lon="5.95218">
        <ele>-55.37</ele>
        <time>2015-10-11T14:15:34Z</time>
      </trkpt>
      <trkpt lat="47.05211" lon="5.95218">
        <ele>-54.86</ele>
        <time>2015-10-11T14:15:57Z</time>
      </trkpt>
      <trkpt lat="47.05213" lon="5.95214">
        <ele>-54.82</ele>
        <time>2015-10-11T14:16:06Z</time>
      </trkpt>
      <trkpt lat="47.05219" lon="5.9519">
        <ele>-55.05</ele>
        <time>2015-10-11T14:16:24Z</time>
      </trkpt>
      <trkpt lat="47.05225" lon="5.95166">
        <ele>-55.55</ele>
        <time>2015-10-11T14:16:40Z</time>
      </trkpt>
      <trkpt lat="47.0523" lon="5.95143">
        <ele>-56.25</ele>
        <time>2015-10-11T14:16:56Z</time>
      </trkpt>
      <trkpt lat="47.05232" lon="5.95115">
        <ele>-56.7</ele>
        <time>2015-10-11T14:17:11Z</time>
      </trkpt>
      <trkpt lat="47.05229" lon="5.9509">
        <ele>-56.93</ele>
        <time>2015-10-11T14:17:25Z</time>
      </trkpt>
      <trkpt lat="47.05224" lon="5.95062">
        <ele>-57</ele>
        <time>2015-10-11T14:17:41Z</time>
      </trkpt>
      <trkpt lat="47.05218" lon="5.95048">
        <ele>-56.87</ele>
        <time>2015-10-11T14:17:52Z</time>
      </trkpt>
      <trkpt lat="47.05216" lon="5.95044">
        <ele>-56.58</ele>
        <time>2015-10-11T14:17:55Z</time>
      </trkpt>
      <trkpt lat="47.05208" lon="5.95028">
        <ele>-55.21</ele>
        <time>2015-10-11T14:18:07Z</time>
      </trkpt>
      <trkpt lat="47.05207" lon="5.95022">
        <ele>-54.81</ele>
        <time>2015-10-11T14:18:11Z</time>
      </trkpt>
      <trkpt lat="47.05206" lon="5.95018">
        <ele>-54.52</ele>
        <time>2015-10-11T14:18:14Z</time>
      </trkpt>
      <trkpt lat="47.05202" lon="5.94998">
        <ele>-53.46</ele>
        <time>2015-10-11T14:18:27Z</time>
      </trkpt>
      <trkpt lat="47.05207" lon="5.94973">
        <ele>-52.56</ele>
        <time>2015-10-11T14:18:43Z</time>
      </trkpt>
      <trkpt lat="47.0521" lon="5.94929">
        <ele>-53.24</ele>
        <time>2015-10-11T14:19:07Z</time>
      </trkpt>
      <trkpt lat="47.05206" lon="5.94887">
        <ele>-54.76</ele>
        <time>2015-10-11T14:19:29Z</time>
      </trkpt>
      <trkpt lat="47.05206" lon="5.94859">
        <ele>-56</ele>
        <time>2015-10-11T14:19:45Z</time>
      </trkpt>
      <trkpt lat="47.05206" lon="5.94845">
        <ele>-56.63</ele>
        <time>2015-10-11T14:19:57Z</time>
      </trkpt>
      <trkpt lat="47.05204" lon="5.94823">
        <ele>-57.02</ele>
        <time>2015-10-11T14:20:14Z</time>
      </trkpt>
      <trkpt lat="47.05201" lon="5.94798">
        <ele>-57.18</ele>
        <time>2015-10-11T14:20:29Z</time>
      </trkpt>
      <trkpt lat="47.05199" lon="5.94753">
        <ele>-56.78</ele>
        <time>2015-10-11T14:20:56Z</time>
      </trkpt>
      <trkpt lat="47.05194" lon="5.94722">
        <ele>-56.25</ele>
        <time>2015-10-11T14:21:22Z</time>
      </trkpt>
      <trkpt lat="47.05184" lon="5.94714">
        <ele>-55.13</ele>
        <time>2015-10-11T14:21:45Z</time>
      </trkpt>
      <trkpt lat="47.05177" lon="5.94708">
        <ele>-54.62</ele>
        <time>2015-10-11T14:21:53Z</time>
      </trkpt>
      <trkpt lat="47.05162" lon="5.94699">
        <ele>-54.12</ele>
        <time>2015-10-11T14:22:07Z</time>
      </trkpt>
      <trkpt lat="47.05137" lon="5.94694">
        <ele>-53.53</ele>
        <time>2015-10-11T14:22:21Z</time>
      </trkpt>
      <trkpt lat="47.0513" lon="5.94688">
        <ele>-52.9</ele>
        <time>2015-10-11T14:22:35Z</time>
      </trkpt>
      <trkpt lat="47.05122" lon="5.94679">
        <ele>-52.87</ele>
        <time>2015-10-11T14:22:49Z</time>
      </trkpt>
      <trkpt lat="47.05117" lon="5.94677">
        <ele>-53.42</ele>
        <time>2015-10-11T14:22:53Z</time>
      </trkpt>
      <trkpt lat="47.05104" lon="5.94668">
        <ele>-53.23</ele>
        <time>2015-10-11T14:23:08Z</time>
      </trkpt>
      <trkpt lat="47.05083" lon="5.94663">
        <ele>-54.48</ele>
        <time>2015-10-11T14:23:31Z</time>
      </trkpt>
      <trkpt lat="47.05066" lon="5.94661">
        <ele>-57.35</ele>
        <time>2015-10-11T14:23:56Z</time>
      </trkpt>
      <trkpt lat="47.05051" lon="5.94658">
        <ele>-60.49</ele>
        <time>2015-10-11T14:24:15Z</time>
      </trkpt>
      <trkpt lat="47.05038" lon="5.9466">
        <ele>-63.5</ele>
        <time>2015-10-11T14:24:32Z</time>
      </trkpt>
      <trkpt lat="47.0503" lon="5.94669">
        <ele>-66.5</ele>
        <time>2015-10-11T14:24:49Z</time>
      </trkpt>
      <trkpt lat="47.05011" lon="5.94667">
        <ele>-69.61</ele>
        <time>2015-10-11T14:25:08Z</time>
      </trkpt>
      <trkpt lat="47.04993" lon="5.94674">
        <ele>-72.65</ele>
        <time>2015-10-11T14:25:28Z</time>
      </trkpt>
      <trkpt lat="47.04974" lon="5.94681">
        <ele>-75.68</ele>
        <time>2015-10-11T14:25:51Z</time>
      </trkpt>
      <trkpt lat="47.04956" lon="5.9468">
        <ele>-78.79</ele>
        <time>2015-10-11T14:26:16Z</time>
      </trkpt>
      <trkpt lat="47.04954" lon="5.94681">
        <ele>-79.22</ele>
        <time>2015-10-11T14:26:23Z</time>
      </trkpt>
      <trkpt lat="47.04949" lon="5.94685">
        <ele>-79.49</ele>
        <time>2015-10-11T14:26:43Z</time>
      </trkpt>
      <trkpt lat="47.04944" lon="5.94686">
        <ele>-79</ele>
        <time>2015-10-11T14:27:06Z</time>
      </trkpt>
      <trkpt lat="47.0493" lon="5.94691">
        <ele>-81.49</ele>
        <time>2015-10-11T14:27:37Z</time>
      </trkpt>
      <trkpt lat="47.04915" lon="5.9469">
        <ele>-84.52</ele>
        <time>2015-10-11T14:27:58Z</time>
      </trkpt>
      <trkpt lat="47.049" lon="5.9469">
        <ele>-87.68</ele>
        <time>2015-10-11T14:28:18Z</time>
      </trkpt>
      <trkpt lat="47.04883" lon="5.94689">
        <ele>-90.74</ele>
        <time>2015-10-11T14:28:38Z</time>
      </trkpt>
      <trkpt lat="47.04879" lon="5.94687">
        <ele>-91.34</ele>
        <time>2015-10-11T14:28:50Z</time>
      </trkpt>
      <trkpt lat="47.04871" lon="5.94702">
        <ele>-89.01</ele>
        <time>2015-10-11T14:29:20Z</time>
      </trkpt>
      <trkpt lat="47.04868" lon="5.94712">
        <ele>-88.46</ele>
        <time>2015-10-11T14:29:42Z</time>
      </trkpt>
      <trkpt lat="47.04857" lon="5.94731">
        <ele>-89.22</ele>
        <time>2015-10-11T14:30:04Z</time>
      </trkpt>
      <trkpt lat="47.04848" lon="5.94745">
        <ele>-91.35</ele>
        <time>2015-10-11T14:30:23Z</time>
      </trkpt>
      <trkpt lat="47.04842" lon="5.9475">
        <ele>-92.49</ele>
        <time>2015-10-11T14:30:42Z</time>
      </trkpt>
      <trkpt lat="47.04833" lon="5.94753">
        <ele>-95.56</ele>
        <time>2015-10-11T14:30:59Z</time>
      </trkpt>
      <trkpt lat="47.0482" lon="5.9476">
        <ele>-98.67</ele>
        <time>2015-10-11T14:31:23Z</time>
      </trkpt>
      <trkpt lat="47.04808" lon="5.94764">
        <ele>-101.71</ele>
        <time>2015-10-11T14:31:45Z</time>
      </trkpt>
      <trkpt lat="47.04797" lon="5.94769">
        <ele>-104.46</ele>
        <time>2015-10-11T14:32:08Z</time>
      </trkpt>
      <trkpt lat="47.0479" lon="5.9477">
        <ele>-106.47</ele>
        <time>2015-10-11T14:32:25Z</time>
      </trkpt>
      <trkpt lat="47.04783" lon="5.94765">
        <ele>-108.95</ele>
        <time>2015-10-11T14:32:44Z</time>
      </trkpt>
      <trkpt lat="47.04774" lon="5.94774">
        <ele>-111.23</ele>
        <time>2015-10-11T14:33:03Z</time>
      </trkpt>
      <trkpt lat="47.0477" lon="5.94778">
        <ele>-112.83</ele>
        <time>2015-10-11T14:33:25Z</time>
      </trkpt>
      <trkpt lat="47.04758" lon="5.94794">
        <ele>-113.77</ele>
        <time>2015-10-11T14:33:47Z</time>
      </trkpt>
      <trkpt lat="47.04748" lon="5.94824">
        <ele>-115.26</ele>
        <time>2015-10-11T14:34:11Z</time>
      </trkpt>
      <trkpt lat="47.04744" lon="5.94834">
        <ele>-115.79</ele>
        <time>2015-10-11T14:34:19Z</time>
      </trkpt>
      <trkpt lat="47.04733" lon="5.94874">
        <ele>-117.76</ele>
        <time>2015-10-11T14:34:46Z</time>
      </trkpt>
      <trkpt lat="47.04725" lon="5.9491">
        <ele>-119.62</ele>
        <time>2015-10-11T14:35:11Z</time>
      </trkpt>
      <trkpt lat="47.04719" lon="5.94946">
        <ele>-121.39</ele>
        <time>2015-10-11T14:35:37Z</time>
      </trkpt>
      <trkpt lat="47.04714" lon="5.94986">
        <ele>-122.76</ele>
        <time>2015-10-11T14:36:04Z</time>
      </trkpt>
      <trkpt lat="47.04696" lon="5.95006">
        <ele>-124.29</ele>
        <time>2015-10-11T14:36:29Z</time>
      </trkpt>
      <trkpt lat="47.04693" lon="5.95007">
        <ele>-124.46</ele>
        <time>2015-10-11T14:36:32Z</time>
      </trkpt>
      <trkpt lat="47.04678" lon="5.95003">
        <ele>-126.47</ele>
        <time>2015-10-11T14:36:45Z</time>
      </trkpt>
      <trkpt lat="47.04664" lon="5.94992">
        <ele>-128.13</ele>
        <time>2015-10-11T14:37:01Z</time>
      </trkpt>
      <trkpt lat="47.04648" lon="5.94972">
        <ele>-129.68</ele>
        <time>2015-10-11T14:37:20Z</time>
      </trkpt>
      <trkpt lat="47.04632" lon="5.94955">
        <ele>-131.01</ele>
        <time>2015-10-11T14:37:39Z</time>
      </trkpt>
      <trkpt lat="47.04618" lon="5.94937">
        <ele>-132.36</ele>
        <time>2015-10-11T14:37:56Z</time>
      </trkpt>
      <trkpt lat="47.04613" lon="5.9493">
        <ele>-132.89</ele>
        <time>2015-10-11T14:38:12Z</time>
      </trkpt>
      <trkpt lat="47.04603" lon="5.94921">
        <ele>-133.25</ele>
        <time>2015-10-11T14:38:29Z</time>
      </trkpt>
      <trkpt lat="47.04587" lon="5.94901">
        <ele>-134.69</ele>
        <time>2015-10-11T14:38:47Z</time>
      </trkpt>
      <trkpt lat="47.0458" lon="5.94893">
        <ele>-135.37</ele>
        <time>2015-10-11T14:38:55Z</time>
      </trkpt>
      <trkpt lat="47.04576" lon="5.94887">
        <ele>-135.79</ele>
        <time>2015-10-11T14:39:00Z</time>
      </trkpt>
      <trkpt lat="47.04563" lon="5.94864">
        <ele>-137.46</ele>
        <time>2015-10-11T14:39:19Z</time>
      </trkpt>
      <trkpt lat="47.04558" lon="5.94838">
        <ele>-138.52</ele>
        <time>2015-10-11T14:39:35Z</time>
      </trkpt>
      <trkpt lat="47.04555" lon="5.94815">
        <ele>-139.74</ele>
        <time>2015-10-11T14:39:51Z</time>
      </trkpt>
      <trkpt lat="47.04551" lon="5.94797">
        <ele>-140.68</ele>
        <time>2015-10-11T14:40:04Z</time>
      </trkpt>
      <trkpt lat="47.04545" lon="5.94784">
        <ele>-141.44</ele>
        <time>2015-10-11T14:40:16Z</time>
      </trkpt>
      <trkpt lat="47.0454" lon="5.94761">
        <ele>-141.75</ele>
        <time>2015-10-11T14:40:33Z</time>
      </trkpt>
      <trkpt lat="47.04543" lon="5.94753">
        <ele>-141.88</ele>
        <time>2015-10-11T14:40:39Z</time>
      </trkpt>
      <trkpt lat="47.04557" lon="5.94731">
        <ele>-142.52</ele>
        <time>2015-10-11T14:41:01Z</time>
      </trkpt>
      <trkpt lat="47.04558" lon="5.9473">
        <ele>-142.49</ele>
        <time>2015-10-11T14:41:03Z</time>
      </trkpt>
      <trkpt lat="47.04556" lon="5.94726">
        <ele>-142.45</ele>
        <time>2015-10-11T14:41:34Z</time>
      </trkpt>
      <trkpt lat="47.04556" lon="5.94724">
        <ele>-142.46</ele>
        <time>2015-10-11T14:41:52Z</time>
      </trkpt>
    </trkseg>
  </trk>
</gpx>